Wetterdaten: Mittwoch, 04.05.2022
Datum Zeit Temp. Aussen Temp. o. S. Temp +5cm Feuchte Auss Luftdruck Regen Sonnenschein Regendauer Solar Windben Empfang
04.05.2022 00:00 11,4 C 10,6 C 7,2 C 83 % 1018,9 hPa 0,0 l/m 0 min 0 min 0 W/m 9,7 km/h (2 Bft) 97,87 %
04.05.2022 00:02 11,4 C 10,6 C 7,2 C 83 % 1018,9 hPa 0,0 l/m 0 min 0 min 0 W/m 12,9 km/h (3 Bft) 93,18 %
04.05.2022 00:04 11,3 C 10,6 C 7,2 C 83 % 1018,9 hPa 0,0 l/m 0 min 0 min 0 W/m 6,4 km/h (2 Bft) 97,87 %
04.05.2022 00:07 11,3 C 10,6 C 7,2 C 83 % 1018,9 hPa 0,0 l/m 0 min 0 min 0 W/m 9,7 km/h (2 Bft) 96,61 %
04.05.2022 00:08 11,3 C 10,6 C 7,2 C 83 % 1018,9 hPa 0,0 l/m 0 min 0 min 0 W/m 3,2 km/h (1 Bft) 100,00 %
04.05.2022 00:10 11,3 C 10,6 C 7,2 C 83 % 1018,9 hPa 0,0 l/m 0 min 0 min 0 W/m 16,1 km/h (3 Bft) 97,87 %
04.05.2022 00:12 11,3 C 10,6 C 7,2 C 83 % 1018,9 hPa 0,0 l/m 0 min 0 min 0 W/m 9,7 km/h (2 Bft) 97,87 %
04.05.2022 00:14 11,3 C 10,6 C 7,2 C 83 % 1018,9 hPa 0,0 l/m 0 min 0 min 0 W/m 9,7 km/h (2 Bft) 97,87 %
04.05.2022 00:16 11,2 C 10,6 C 7,2 C 83 % 1018,9 hPa 0,0 l/m 0 min 0 min 0 W/m 6,4 km/h (2 Bft) 95,65 %
04.05.2022 00:18 11,2 C 10,6 C 7,2 C 83 % 1018,9 hPa 0,0 l/m 0 min 0 min 0 W/m 9,7 km/h (2 Bft) 97,87 %
04.05.2022 00:20 11,2 C 10,6 C 7,2 C 83 % 1018,9 hPa 0,0 l/m 0 min 0 min 0 W/m 12,9 km/h (3 Bft) 97,87 %
04.05.2022 00:22 11,2 C 10,0 C 7,2 C 83 % 1019,0 hPa 0,0 l/m 0 min 0 min 0 W/m 9,7 km/h (2 Bft) 97,87 %
04.05.2022 00:24 11,2 C 10,0 C 7,2 C 83 % 1018,9 hPa 0,0 l/m 0 min 0 min 0 W/m 6,4 km/h (2 Bft) 97,87 %
04.05.2022 00:26 11,1 C 10,0 C 6,7 C 83 % 1018,9 hPa 0,0 l/m 0 min 0 min 0 W/m 6,4 km/h (2 Bft) 97,87 %
04.05.2022 00:28 11,1 C 10,0 C 6,7 C 83 % 1018,9 hPa 0,0 l/m 0 min 0 min 0 W/m 6,4 km/h (2 Bft) 97,83 %
04.05.2022 00:30 11,1 C 10,0 C 6,7 C 83 % 1018,9 hPa 0,0 l/m 0 min 0 min 0 W/m 9,7 km/h (2 Bft) 97,87 %
04.05.2022 00:32 11,1 C 10,0 C 6,7 C 83 % 1018,9 hPa 0,0 l/m 0 min 0 min 0 W/m 6,4 km/h (2 Bft) 97,87 %
04.05.2022 00:34 11,0 C 10,0 C 6,7 C 83 % 1018,9 hPa 0,0 l/m 0 min 0 min 0 W/m 12,9 km/h (3 Bft) 95,74 %
04.05.2022 00:36 11,0 C 10,0 C 6,7 C 83 % 1018,9 hPa 0,0 l/m 0 min 0 min 0 W/m 6,4 km/h (2 Bft) 96,55 %
04.05.2022 00:38 10,9 C 10,0 C 6,7 C 83 % 1018,8 hPa 0,0 l/m 0 min 0 min 0 W/m 9,7 km/h (2 Bft) 97,22 %
04.05.2022 00:40 10,9 C 10,0 C 6,7 C 83 % 1018,9 hPa 0,0 l/m 0 min 0 min 0 W/m 9,7 km/h (2 Bft) 98,18 %
04.05.2022 00:42 10,8 C 10,0 C 6,7 C 83 % 1018,9 hPa 0,0 l/m 0 min 0 min 0 W/m 6,4 km/h (2 Bft) 97,83 %
04.05.2022 00:44 10,8 C 10,0 C 6,7 C 83 % 1018,9 hPa 0,0 l/m 0 min 0 min 0 W/m 12,9 km/h (3 Bft) 97,87 %
04.05.2022 00:46 10,8 C 10,0 C 6,7 C 83 % 1018,9 hPa 0,0 l/m 0 min 0 min 0 W/m 9,7 km/h (2 Bft) 95,74 %
04.05.2022 00:48 10,7 C 10,0 C 6,7 C 83 % 1018,9 hPa 0,0 l/m 0 min 0 min 0 W/m 12,9 km/h (3 Bft) 93,62 %
04.05.2022 00:50 10,7 C 10,0 C 6,7 C 83 % 1018,9 hPa 0,0 l/m 0 min 0 min 0 W/m 9,7 km/h (2 Bft) 93,62 %
04.05.2022 00:52 10,7 C 10,0 C 6,7 C 83 % 1018,9 hPa 0,0 l/m 0 min 0 min 0 W/m 9,7 km/h (2 Bft) 95,74 %
04.05.2022 00:54 10,7 C 10,0 C 6,7 C 83 % 1018,9 hPa 0,0 l/m 0 min 0 min 0 W/m 6,4 km/h (2 Bft) 97,83 %
04.05.2022 00:56 10,6 C 10,0 C 6,7 C 83 % 1019,0 hPa 0,0 l/m 0 min 0 min 0 W/m 12,9 km/h (3 Bft) 97,87 %
04.05.2022 00:58 10,6 C 10,0 C 6,7 C 83 % 1019,0 hPa 0,0 l/m 0 min 0 min 0 W/m 9,7 km/h (2 Bft) 95,74 %
04.05.2022 01:00 10,6 C 10,0 C 6,7 C 83 % 1019,0 hPa 0,0 l/m 0 min 0 min 0 W/m 12,9 km/h (3 Bft) 93,62 %
04.05.2022 01:02 10,6 C 10,0 C 6,7 C 83 % 1019,0 hPa 0,0 l/m 0 min 0 min 0 W/m 6,4 km/h (2 Bft) 93,62 %
04.05.2022 01:04 10,5 C 10,0 C 6,7 C 83 % 1019,0 hPa 0,0 l/m 0 min 0 min 0 W/m 12,9 km/h (3 Bft) 95,65 %
04.05.2022 01:06 10,5 C 10,0 C 6,7 C 83 % 1018,9 hPa 0,0 l/m 0 min 0 min 0 W/m 6,4 km/h (2 Bft) 89,36 %
04.05.2022 01:08 10,4 C 9,4 C 6,7 C 83 % 1019,0 hPa 0,0 l/m 0 min 0 min 0 W/m 6,4 km/h (2 Bft) 95,74 %
04.05.2022 01:10 10,4 C 9,4 C 6,1 C 83 % 1018,9 hPa 0,0 l/m 0 min 0 min 0 W/m 9,7 km/h (2 Bft) 95,74 %
04.05.2022 01:12 10,4 C 9,4 C 6,1 C 83 % 1019,0 hPa 0,0 l/m 0 min 0 min 0 W/m 6,4 km/h (2 Bft) 95,74 %
04.05.2022 01:14 10,4 C 9,4 C 6,1 C 83 % 1018,9 hPa 0,0 l/m 0 min 0 min 0 W/m 9,7 km/h (2 Bft) 97,87 %
04.05.2022 01:16 10,4 C 9,4 C 6,1 C 83 % 1019,0 hPa 0,0 l/m 0 min 0 min 0 W/m 9,7 km/h (2 Bft) 97,87 %
04.05.2022 01:18 10,3 C 9,4 C 6,1 C 83 % 1019,0 hPa 0,0 l/m 0 min 0 min 0 W/m 6,4 km/h (2 Bft) 95,65 %
04.05.2022 01:20 10,3 C 9,4 C 6,1 C 83 % 1019,0 hPa 0,0 l/m 0 min 0 min 0 W/m 3,2 km/h (1 Bft) 97,87 %
04.05.2022 01:22 10,3 C 9,4 C 6,1 C 83 % 1019,0 hPa 0,0 l/m 0 min 0 min 0 W/m 9,7 km/h (2 Bft) 97,87 %
04.05.2022 01:24 10,3 C 9,4 C 6,1 C 83 % 1019,0 hPa 0,0 l/m 0 min 0 min 0 W/m 6,4 km/h (2 Bft) 97,87 %
04.05.2022 01:26 10,3 C 9,4 C 6,1 C 83 % 1019,0 hPa 0,0 l/m 0 min 0 min 0 W/m 6,4 km/h (2 Bft) 97,87 %
04.05.2022 01:28 10,3 C 9,4 C 6,1 C 83 % 1019,0 hPa 0,0 l/m 0 min 0 min 0 W/m 12,9 km/h (3 Bft) 95,65 %
04.05.2022 01:30 10,2 C 9,4 C 6,1 C 83 % 1019,0 hPa 0,0 l/m 0 min 0 min 0 W/m 3,2 km/h (1 Bft) 95,74 %
04.05.2022 01:32 10,2 C 9,4 C 6,1 C 83 % 1019,0 hPa 0,0 l/m 0 min 0 min 0 W/m 3,2 km/h (1 Bft) 95,74 %
04.05.2022 01:34 10,2 C 9,4 C 6,1 C 83 % 1019,0 hPa 0,0 l/m 0 min 0 min 0 W/m 3,2 km/h (1 Bft) 100,00 %
04.05.2022 01:36 10,2 C 9,4 C 6,1 C 83 % 1019,0 hPa 0,0 l/m 0 min 0 min 0 W/m 3,2 km/h (1 Bft) 100,00 %
04.05.2022 01:38 10,2 C 9,4 C 6,1 C 83 % 1019,0 hPa 0,0 l/m 0 min 0 min 0 W/m 6,4 km/h (2 Bft) 100,00 %
04.05.2022 01:40 10,2 C 9,4 C 6,1 C 83 % 1018,9 hPa 0,0 l/m 0 min 0 min 0 W/m 6,4 km/h (2 Bft) 100,00 %
04.05.2022 01:42 10,1 C 9,4 C 6,1 C 83 % 1018,9 hPa 0,0 l/m 0 min 0 min 0 W/m 6,4 km/h (2 Bft) 100,00 %
04.05.2022 01:44 10,1 C 9,4 C 6,1 C 83 % 1018,9 hPa 0,0 l/m 0 min 0 min 0 W/m 6,4 km/h (2 Bft) 100,00 %
04.05.2022 01:46 10,1 C 8,9 C 5,6 C 82 % 1018,9 hPa 0,0 l/m 0 min 0 min 0 W/m 6,4 km/h (2 Bft) 100,00 %
04.05.2022 01:48 10,1 C 8,9 C 5,6 C 82 % 1018,9 hPa 0,0 l/m 0 min 0 min 0 W/m 6,4 km/h (2 Bft) 100,00 %
04.05.2022 01:50 10,0 C 8,9 C 5,6 C 82 % 1018,9 hPa 0,0 l/m 0 min 0 min 0 W/m 6,4 km/h (2 Bft) 100,00 %
04.05.2022 01:52 9,9 C 8,9 C 5,6 C 82 % 1018,9 hPa 0,0 l/m 0 min 0 min 0 W/m 3,2 km/h (1 Bft) 100,00 %
04.05.2022 01:54 9,9 C 8,9 C 5,6 C 82 % 1018,9 hPa 0,0 l/m 0 min 0 min 0 W/m 6,4 km/h (2 Bft) 100,00 %
04.05.2022 01:56 9,9 C 8,9 C 5,6 C 82 % 1018,9 hPa 0,0 l/m 0 min 0 min 0 W/m 6,4 km/h (2 Bft) 100,00 %
04.05.2022 01:58 9,9 C 8,9 C 5,6 C 82 % 1018,9 hPa 0,0 l/m 0 min 0 min 0 W/m 3,2 km/h (1 Bft) 100,00 %
04.05.2022 02:00 9,9 C 8,9 C 5,6 C 83 % 1018,8 hPa 0,0 l/m 0 min 0 min 0 W/m 6,4 km/h (2 Bft) 100,00 %
04.05.2022 02:02 9,8 C 8,9 C 5,6 C 83 % 1018,9 hPa 0,0 l/m 0 min 0 min 0 W/m 9,7 km/h (2 Bft) 100,00 %
04.05.2022 02:04 9,8 C 8,9 C 5,6 C 83 % 1018,8 hPa 0,0 l/m 0 min 0 min 0 W/m 6,4 km/h (2 Bft) 100,00 %
04.05.2022 02:06 9,8 C 8,9 C 5,6 C 83 % 1018,8 hPa 0,0 l/m 0 min 0 min 0 W/m 9,7 km/h (2 Bft) 100,00 %
04.05.2022 02:08 9,8 C 8,9 C 5,6 C 83 % 1018,8 hPa 0,0 l/m 0 min 0 min 0 W/m 3,2 km/h (1 Bft) 97,87 %
04.05.2022 02:10 9,7 C 8,9 C 5,6 C 83 % 1018,8 hPa 0,0 l/m 0 min 0 min 0 W/m 3,2 km/h (1 Bft) 100,00 %
04.05.2022 02:12 9,7 C 8,9 C 5,6 C 83 % 1018,8 hPa 0,0 l/m 0 min 0 min 0 W/m 0,0 km/h (0 Bft) 100,00 %
04.05.2022 02:14 9,7 C 8,9 C 5,6 C 83 % 1018,8 hPa 0,0 l/m 0 min 0 min 0 W/m 9,7 km/h (2 Bft) 100,00 %
04.05.2022 02:16 9,7 C 8,9 C 5,6 C 83 % 1018,8 hPa 0,0 l/m 0 min 0 min 0 W/m 6,4 km/h (2 Bft) 97,87 %
04.05.2022 02:18 9,7 C 8,9 C 5,6 C 83 % 1018,7 hPa 0,0 l/m 0 min 0 min 0 W/m 6,4 km/h (2 Bft) 100,00 %
04.05.2022 02:20 9,6 C 8,9 C 5,6 C 83 % 1018,7 hPa 0,0 l/m 0 min 0 min 0 W/m 6,4 km/h (2 Bft) 100,00 %
04.05.2022 02:22 9,6 C 8,3 C 5,6 C 83 % 1018,7 hPa 0,0 l/m 0 min 0 min 0 W/m 3,2 km/h (1 Bft) 100,00 %
04.05.2022 02:24 9,6 C 8,3 C 5,6 C 83 % 1018,8 hPa 0,0 l/m 0 min 0 min 0 W/m 9,7 km/h (2 Bft) 97,87 %
04.05.2022 02:26 9,6 C 8,3 C 5,6 C 83 % 1018,8 hPa 0,0 l/m 0 min 0 min 0 W/m 6,4 km/h (2 Bft) 97,83 %
04.05.2022 02:28 9,5 C 8,3 C 5,6 C 83 % 1018,8 hPa 0,0 l/m 0 min 0 min 0 W/m 3,2 km/h (1 Bft) 97,87 %
04.05.2022 02:30 9,5 C 8,3 C 5,6 C 83 % 1018,8 hPa 0,0 l/m 0 min 0 min 0 W/m 6,4 km/h (2 Bft) 97,87 %
04.05.2022 02:32 9,4 C 8,3 C 5,6 C 83 % 1018,8 hPa 0,0 l/m 0 min 0 min 0 W/m 9,7 km/h (2 Bft) 97,87 %
04.05.2022 02:34 9,4 C 8,3 C 5,6 C 83 % 1018,8 hPa 0,0 l/m 0 min 0 min 0 W/m 6,4 km/h (2 Bft) 97,87 %
04.05.2022 02:36 9,4 C 8,3 C 5,0 C 83 % 1018,8 hPa 0,0 l/m 0 min 0 min 0 W/m 6,4 km/h (2 Bft) 97,87 %
04.05.2022 02:38 9,4 C 8,3 C 5,0 C 83 % 1018,8 hPa 0,0 l/m 0 min 0 min 0 W/m 9,7 km/h (2 Bft) 97,83 %
04.05.2022 02:40 9,3 C 8,3 C 5,0 C 83 % 1018,8 hPa 0,0 l/m 0 min 0 min 0 W/m 6,4 km/h (2 Bft) 97,87 %
04.05.2022 02:42 9,3 C 8,3 C 5,0 C 83 % 1018,8 hPa 0,0 l/m 0 min 0 min 0 W/m 6,4 km/h (2 Bft) 97,87 %
04.05.2022 02:44 9,3 C 8,3 C 5,0 C 83 % 1018,8 hPa 0,0 l/m 0 min 0 min 0 W/m 6,4 km/h (2 Bft) 97,14 %
04.05.2022 02:46 9,2 C 8,3 C 5,0 C 83 % 1018,8 hPa 0,0 l/m 0 min 0 min 0 W/m 6,4 km/h (2 Bft) 97,87 %
04.05.2022 02:48 9,2 C 8,3 C 5,0 C 84 % 1018,8 hPa 0,0 l/m 0 min 0 min 0 W/m 3,2 km/h (1 Bft) 97,87 %
04.05.2022 02:50 9,2 C 8,3 C 5,0 C 84 % 1018,8 hPa 0,0 l/m 0 min 0 min 0 W/m 6,4 km/h (2 Bft) 97,87 %
04.05.2022 02:52 9,2 C 8,3 C 5,0 C 84 % 1018,8 hPa 0,0 l/m 0 min 0 min 0 W/m 3,2 km/h (1 Bft) 100,00 %
04.05.2022 02:54 9,1 C 8,3 C 5,0 C 84 % 1018,8 hPa 0,0 l/m 0 min 0 min 0 W/m 6,4 km/h (2 Bft) 97,87 %
04.05.2022 02:56 9,1 C 8,3 C 5,0 C 84 % 1018,8 hPa 0,0 l/m 0 min 0 min 0 W/m 6,4 km/h (2 Bft) 100,00 %
04.05.2022 02:58 9,1 C 8,3 C 5,0 C 84 % 1018,8 hPa 0,0 l/m 0 min 0 min 0 W/m 3,2 km/h (1 Bft) 97,87 %
04.05.2022 03:00 9,1 C 7,8 C 5,0 C 84 % 1018,8 hPa 0,0 l/m 0 min 0 min 0 W/m 9,7 km/h (2 Bft) 100,00 %
04.05.2022 03:02 9,1 C 7,8 C 5,0 C 84 % 1018,7 hPa 0,0 l/m 0 min 0 min 0 W/m 3,2 km/h (1 Bft) 98,28 %
04.05.2022 03:04 9,1 C 7,8 C 5,0 C 84 % 1018,7 hPa 0,0 l/m 0 min 0 min 0 W/m 3,2 km/h (1 Bft) 97,22 %
04.05.2022 03:06 9,0 C 8,3 C 5,0 C 85 % 1018,7 hPa 0,0 l/m 0 min 0 min 0 W/m 6,4 km/h (2 Bft) 100,00 %
04.05.2022 03:08 9,1 C 7,8 C 5,0 C 85 % 1018,7 hPa 0,0 l/m 0 min 0 min 0 W/m 3,2 km/h (1 Bft) 97,14 %
04.05.2022 03:10 9,0 C 7,8 C 5,0 C 85 % 1018,7 hPa 0,0 l/m 0 min 0 min 0 W/m 6,4 km/h (2 Bft) 96,61 %
04.05.2022 03:12 9,0 C 7,8 C 5,0 C 85 % 1018,8 hPa 0,0 l/m 0 min 0 min 0 W/m 6,4 km/h (2 Bft) 97,87 %
04.05.2022 03:14 8,9 C 7,8 C 5,0 C 85 % 1018,8 hPa 0,0 l/m 0 min 0 min 0 W/m 6,4 km/h (2 Bft) 97,83 %
04.05.2022 03:16 8,9 C 7,8 C 5,0 C 85 % 1018,7 hPa 0,0 l/m 0 min 0 min 0 W/m 3,2 km/h (1 Bft) 97,87 %
04.05.2022 03:18 8,9 C 7,8 C 5,0 C 85 % 1018,7 hPa 0,0 l/m 0 min 0 min 0 W/m 3,2 km/h (1 Bft) 97,87 %
04.05.2022 03:20 8,9 C 7,8 C 5,0 C 85 % 1018,7 hPa 0,0 l/m 0 min 0 min 0 W/m 6,4 km/h (2 Bft) 97,14 %
04.05.2022 03:22 8,9 C 7,8 C 5,0 C 85 % 1018,8 hPa 0,0 l/m 0 min 0 min 0 W/m 3,2 km/h (1 Bft) 97,87 %
04.05.2022 03:24 8,9 C 7,8 C 5,0 C 85 % 1018,7 hPa 0,0 l/m 0 min 0 min 0 W/m 6,4 km/h (2 Bft) 94,92 %
04.05.2022 03:26 8,8 C 7,8 C 5,0 C 85 % 1018,8 hPa 0,0 l/m 0 min 0 min 0 W/m 3,2 km/h (1 Bft) 97,14 %
04.05.2022 03:28 8,8 C 7,8 C 5,0 C 85 % 1018,8 hPa 0,0 l/m 0 min 0 min 0 W/m 6,4 km/h (2 Bft) 95,74 %
04.05.2022 03:30 8,8 C 7,8 C 5,0 C 85 % 1018,8 hPa 0,0 l/m 0 min 0 min 0 W/m 6,4 km/h (2 Bft) 97,83 %
04.05.2022 03:32 8,8 C 7,8 C 5,0 C 85 % 1018,8 hPa 0,0 l/m 0 min 0 min 0 W/m 3,2 km/h (1 Bft) 97,87 %
04.05.2022 03:34 8,8 C 7,8 C 5,0 C 85 % 1018,8 hPa 0,0 l/m 0 min 0 min 0 W/m 3,2 km/h (1 Bft) 100,00 %
04.05.2022 03:36 8,8 C 7,8 C 4,4 C 85 % 1018,8 hPa 0,0 l/m 0 min 0 min 0 W/m 3,2 km/h (1 Bft) 96,61 %
04.05.2022 03:38 8,7 C 7,8 C 4,4 C 85 % 1018,8 hPa 0,0 l/m 0 min 0 min 0 W/m 0,0 km/h (0 Bft) 95,65 %
04.05.2022 03:40 8,7 C 7,8 C 4,4 C 85 % 1018,8 hPa 0,0 l/m 0 min 0 min 0 W/m 3,2 km/h (1 Bft) 97,22 %
04.05.2022 03:42 8,7 C 7,8 C 4,4 C 85 % 1018,7 hPa 0,0 l/m 0 min 0 min 0 W/m 3,2 km/h (1 Bft) 95,65 %
04.05.2022 03:44 8,7 C 7,8 C 4,4 C 85 % 1018,7 hPa 0,0 l/m 0 min 0 min 0 W/m 3,2 km/h (1 Bft) 93,62 %
04.05.2022 03:46 8,7 C 7,8 C 4,4 C 85 % 1018,8 hPa 0,0 l/m 0 min 0 min 0 W/m 6,4 km/h (2 Bft) 95,74 %
04.05.2022 03:48 8,6 C 7,8 C 4,4 C 85 % 1018,8 hPa 0,0 l/m 0 min 0 min 0 W/m 3,2 km/h (1 Bft) 95,74 %
04.05.2022 03:50 8,6 C 7,8 C 4,4 C 85 % 1018,8 hPa 0,0 l/m 0 min 0 min 0 W/m 6,4 km/h (2 Bft) 95,74 %
04.05.2022 03:52 8,6 C 7,8 C 4,4 C 85 % 1018,8 hPa 0,0 l/m 0 min 0 min 0 W/m 3,2 km/h (1 Bft) 95,74 %
04.05.2022 03:54 8,6 C 7,2 C 4,4 C 85 % 1018,7 hPa 0,0 l/m 0 min 0 min 0 W/m 3,2 km/h (1 Bft) 95,74 %
04.05.2022 03:56 8,6 C 7,2 C 4,4 C 85 % 1018,8 hPa 0,0 l/m 0 min 0 min 0 W/m 6,4 km/h (2 Bft) 97,87 %
04.05.2022 03:58 8,5 C 7,8 C 4,4 C 85 % 1018,8 hPa 0,0 l/m 0 min 0 min 0 W/m 3,2 km/h (1 Bft) 97,87 %
04.05.2022 04:00 8,5 C 7,8 C 4,4 C 85 % 1018,8 hPa 0,0 l/m 0 min 0 min 0 W/m 3,2 km/h (1 Bft) 93,62 %
04.05.2022 04:05 8,5 C 7,8 C 4,4 C 86 % 1018,8 hPa 0,0 l/m 0 min 0 min 0 W/m 9,7 km/h (2 Bft) 94,74 %
04.05.2022 04:06 8,5 C 7,8 C 4,4 C 86 % 1018,8 hPa 0,0 l/m 0 min 0 min 0 W/m 6,4 km/h (2 Bft) 100,00 %
04.05.2022 04:08 8,4 C 7,8 C 4,4 C 86 % 1018,8 hPa 0,0 l/m 0 min 0 min 0 W/m 6,4 km/h (2 Bft) 94,29 %
04.05.2022 04:10 8,4 C 7,8 C 4,4 C 86 % 1018,8 hPa 0,0 l/m 0 min 0 min 0 W/m 6,4 km/h (2 Bft) 95,74 %
04.05.2022 04:12 8,4 C 7,2 C 4,4 C 86 % 1018,7 hPa 0,0 l/m 0 min 0 min 0 W/m 6,4 km/h (2 Bft) 95,74 %
04.05.2022 04:14 8,4 C 7,2 C 4,4 C 86 % 1018,7 hPa 0,0 l/m 0 min 0 min 0 W/m 9,7 km/h (2 Bft) 95,74 %
04.05.2022 04:16 8,3 C 7,2 C 4,4 C 86 % 1018,8 hPa 0,0 l/m 0 min 0 min 0 W/m 6,4 km/h (2 Bft) 93,48 %
04.05.2022 04:18 8,3 C 7,2 C 4,4 C 86 % 1018,8 hPa 0,0 l/m 0 min 0 min 0 W/m 0,0 km/h (0 Bft) 93,62 %
04.05.2022 04:20 8,3 C 7,2 C 4,4 C 86 % 1018,8 hPa 0,0 l/m 0 min 0 min 0 W/m 9,7 km/h (2 Bft) 95,74 %
04.05.2022 04:22 8,3 C 7,2 C 4,4 C 86 % 1018,7 hPa 0,0 l/m 0 min 0 min 0 W/m 9,7 km/h (2 Bft) 95,74 %
04.05.2022 04:24 8,3 C 7,2 C 4,4 C 86 % 1018,7 hPa 0,0 l/m 0 min 0 min 0 W/m 6,4 km/h (2 Bft) 95,74 %
04.05.2022 04:26 8,3 C 7,2 C 4,4 C 86 % 1018,7 hPa 0,0 l/m 0 min 0 min 0 W/m 6,4 km/h (2 Bft) 95,74 %
04.05.2022 04:28 8,2 C 7,8 C 4,4 C 86 % 1018,7 hPa 0,0 l/m 0 min 0 min 0 W/m 6,4 km/h (2 Bft) 97,83 %
04.05.2022 04:30 8,3 C 7,8 C 4,4 C 86 % 1018,7 hPa 0,0 l/m 0 min 0 min 0 W/m 9,7 km/h (2 Bft) 97,87 %
04.05.2022 04:32 8,2 C 7,8 C 4,4 C 86 % 1018,7 hPa 0,0 l/m 0 min 0 min 0 W/m 9,7 km/h (2 Bft) 95,74 %
04.05.2022 04:34 8,2 C 7,8 C 4,4 C 86 % 1018,7 hPa 0,0 l/m 0 min 0 min 0 W/m 6,4 km/h (2 Bft) 95,74 %
04.05.2022 04:36 8,2 C 7,8 C 4,4 C 86 % 1018,7 hPa 0,0 l/m 0 min 0 min 0 W/m 12,9 km/h (3 Bft) 98,31 %
04.05.2022 04:38 8,2 C 7,2 C 4,4 C 86 % 1018,7 hPa 0,0 l/m 0 min 0 min 0 W/m 6,4 km/h (2 Bft) 97,14 %
04.05.2022 04:40 8,2 C 7,2 C 4,4 C 86 % 1018,7 hPa 0,0 l/m 0 min 0 min 0 W/m 6,4 km/h (2 Bft) 97,83 %
04.05.2022 04:42 8,2 C 7,2 C 4,4 C 86 % 1018,6 hPa 0,0 l/m 0 min 0 min 0 W/m 3,2 km/h (1 Bft) 97,87 %
04.05.2022 04:44 8,2 C 7,2 C 4,4 C 86 % 1018,7 hPa 0,0 l/m 0 min 0 min 0 W/m 9,7 km/h (2 Bft) 97,87 %
04.05.2022 04:46 8,2 C 7,2 C 4,4 C 86 % 1018,7 hPa 0,0 l/m 0 min 0 min 0 W/m 3,2 km/h (1 Bft) 97,87 %
04.05.2022 04:48 8,2 C 7,2 C 4,4 C 86 % 1018,7 hPa 0,0 l/m 0 min 0 min 0 W/m 6,4 km/h (2 Bft) 97,87 %
04.05.2022 04:50 8,2 C 7,2 C 4,4 C 86 % 1018,7 hPa 0,0 l/m 0 min 0 min 0 W/m 3,2 km/h (1 Bft) 54,55 %
04.05.2022 04:52 8,2 C 7,2 C 4,4 C 86 % 1018,7 hPa 0,0 l/m 0 min 0 min 0 W/m 9,7 km/h (2 Bft) 97,83 %
04.05.2022 04:54 8,1 C 7,2 C 4,4 C 86 % 1018,7 hPa 0,0 l/m 0 min 0 min 0 W/m 9,7 km/h (2 Bft) 100,00 %
04.05.2022 04:56 8,1 C 7,2 C 4,4 C 86 % 1018,6 hPa 0,0 l/m 0 min 0 min 0 W/m 12,9 km/h (3 Bft) 100,00 %
04.05.2022 04:58 8,1 C 7,2 C 4,4 C 86 % 1018,6 hPa 0,0 l/m 0 min 0 min 0 W/m 9,7 km/h (2 Bft) 100,00 %
04.05.2022 05:00 8,1 C 7,2 C 4,4 C 86 % 1018,6 hPa 0,0 l/m 0 min 0 min 0 W/m 6,4 km/h (2 Bft) 97,87 %
04.05.2022 05:02 8,1 C 7,2 C 4,4 C 86 % 1018,6 hPa 0,0 l/m 0 min 0 min 0 W/m 3,2 km/h (1 Bft) 100,00 %
04.05.2022 05:04 8,1 C 7,2 C 4,4 C 86 % 1018,6 hPa 0,0 l/m 0 min 0 min 0 W/m 6,4 km/h (2 Bft) 100,00 %
04.05.2022 05:06 8,1 C 7,2 C 4,4 C 86 % 1018,6 hPa 0,0 l/m 0 min 0 min 0 W/m 6,4 km/h (2 Bft) 98,31 %
04.05.2022 05:08 8,1 C 7,2 C 4,4 C 86 % 1018,6 hPa 0,0 l/m 0 min 0 min 0 W/m 3,2 km/h (1 Bft) 100,00 %
04.05.2022 05:10 8,1 C 7,2 C 3,9 C 86 % 1018,6 hPa 0,0 l/m 0 min 0 min 0 W/m 3,2 km/h (1 Bft) 100,00 %
04.05.2022 05:12 8,0 C 7,2 C 4,4 C 86 % 1018,6 hPa 0,0 l/m 0 min 0 min 0 W/m 6,4 km/h (2 Bft) 97,87 %
04.05.2022 05:14 8,0 C 7,2 C 4,4 C 86 % 1018,6 hPa 0,0 l/m 0 min 0 min 0 W/m 9,7 km/h (2 Bft) 100,00 %
04.05.2022 05:16 8,0 C 7,2 C 3,9 C 86 % 1018,6 hPa 0,0 l/m 0 min 0 min 0 W/m 3,2 km/h (1 Bft) 97,83 %
04.05.2022 05:18 8,0 C 7,2 C 3,9 C 86 % 1018,6 hPa 0,0 l/m 0 min 0 min 0 W/m 9,7 km/h (2 Bft) 100,00 %
04.05.2022 05:20 8,0 C 7,2 C 3,9 C 86 % 1018,7 hPa 0,0 l/m 0 min 0 min 0 W/m 6,4 km/h (2 Bft) 100,00 %
04.05.2022 05:22 7,9 C 7,2 C 3,9 C 86 % 1018,7 hPa 0,0 l/m 0 min 0 min 0 W/m 3,2 km/h (1 Bft) 100,00 %
04.05.2022 05:24 7,9 C 7,2 C 3,9 C 86 % 1018,7 hPa 0,0 l/m 0 min 0 min 0 W/m 6,4 km/h (2 Bft) 97,87 %
04.05.2022 05:26 7,9 C 7,2 C 3,9 C 86 % 1018,7 hPa 0,0 l/m 0 min 0 min 0 W/m 6,4 km/h (2 Bft) 97,87 %
04.05.2022 05:28 7,9 C 7,2 C 3,9 C 86 % 1018,7 hPa 0,0 l/m 0 min 0 min 0 W/m 3,2 km/h (1 Bft) 97,83 %
04.05.2022 05:30 7,9 C 6,7 C 3,9 C 86 % 1018,6 hPa 0,0 l/m 0 min 0 min 0 W/m 3,2 km/h (1 Bft) 97,87 %
04.05.2022 05:32 7,8 C 6,7 C 3,9 C 86 % 1018,7 hPa 0,0 l/m 0 min 0 min 0 W/m 6,4 km/h (2 Bft) 93,62 %
04.05.2022 05:34 7,8 C 6,7 C 3,9 C 86 % 1018,7 hPa 0,0 l/m 0 min 0 min 0 W/m 3,2 km/h (1 Bft) 93,62 %
04.05.2022 05:36 7,8 C 6,7 C 3,9 C 87 % 1018,6 hPa 0,0 l/m 0 min 0 min 0 W/m 9,7 km/h (2 Bft) 96,55 %
04.05.2022 05:38 7,8 C 6,7 C 3,9 C 87 % 1018,6 hPa 0,0 l/m 0 min 0 min 0 W/m 6,4 km/h (2 Bft) 94,44 %
04.05.2022 05:40 7,8 C 6,7 C 3,9 C 87 % 1018,7 hPa 0,0 l/m 0 min 0 min 0 W/m 6,4 km/h (2 Bft) 93,48 %
04.05.2022 05:42 7,7 C 6,7 C 3,9 C 87 % 1018,7 hPa 0,0 l/m 0 min 0 min 0 W/m 9,7 km/h (2 Bft) 95,74 %
04.05.2022 05:44 7,7 C 6,7 C 3,3 C 87 % 1018,7 hPa 0,0 l/m 0 min 0 min 0 W/m 6,4 km/h (2 Bft) 93,62 %
04.05.2022 05:46 7,7 C 6,7 C 3,3 C 87 % 1018,7 hPa 0,0 l/m 0 min 0 min 0 W/m 3,2 km/h (1 Bft) 91,49 %
04.05.2022 05:48 7,7 C 6,7 C 3,3 C 87 % 1018,7 hPa 0,0 l/m 0 min 0 min 0 W/m 3,2 km/h (1 Bft) 95,92 %
04.05.2022 05:50 7,7 C 6,7 C 3,3 C 87 % 1018,7 hPa 0,0 l/m 0 min 0 min 0 W/m 6,4 km/h (2 Bft) 93,62 %
04.05.2022 05:52 7,6 C 6,7 C 3,3 C 87 % 1018,7 hPa 0,0 l/m 0 min 0 min 0 W/m 3,2 km/h (1 Bft) 95,74 %
04.05.2022 05:54 7,6 C 6,7 C 3,3 C 87 % 1018,6 hPa 0,0 l/m 0 min 0 min 0 W/m 6,4 km/h (2 Bft) 95,74 %
04.05.2022 05:56 7,6 C 6,7 C 3,3 C 87 % 1018,6 hPa 0,0 l/m 0 min 0 min 0 W/m 6,4 km/h (2 Bft) 95,74 %
04.05.2022 05:58 7,6 C 6,7 C 3,3 C 87 % 1018,6 hPa 0,0 l/m 0 min 0 min 0 W/m 9,7 km/h (2 Bft) 95,74 %
04.05.2022 06:00 7,5 C 6,7 C 3,3 C 87 % 1018,6 hPa 0,0 l/m 0 min 0 min 0 W/m 9,7 km/h (2 Bft) 93,48 %
04.05.2022 06:02 7,5 C 6,7 C 3,3 C 87 % 1018,6 hPa 0,0 l/m 0 min 0 min 0 W/m 6,4 km/h (2 Bft) 97,87 %
04.05.2022 06:04 7,4 C 6,7 C 3,3 C 87 % 1018,6 hPa 0,0 l/m 0 min 0 min 0 W/m 12,9 km/h (3 Bft) 97,87 %
04.05.2022 06:07 7,4 C 6,7 C 3,3 C 87 % 1018,7 hPa 0,0 l/m 0 min 0 min 5 W/m 12,9 km/h (3 Bft) 100,00 %
04.05.2022 06:08 7,4 C 6,7 C 3,3 C 87 % 1018,7 hPa 0,0 l/m 0 min 0 min 5 W/m 6,4 km/h (2 Bft) 100,00 %
04.05.2022 06:10 7,4 C 6,7 C 3,3 C 87 % 1018,7 hPa 0,0 l/m 0 min 0 min 6 W/m 9,7 km/h (2 Bft) 100,00 %
04.05.2022 06:12 7,4 C 6,7 C 3,3 C 87 % 1018,7 hPa 0,0 l/m 0 min 0 min 7 W/m 9,7 km/h (2 Bft) 100,00 %
04.05.2022 06:14 7,3 C 6,7 C 3,3 C 87 % 1018,7 hPa 0,0 l/m 0 min 0 min 7 W/m 9,7 km/h (2 Bft) 97,87 %
04.05.2022 06:16 7,3 C 6,7 C 3,3 C 87 % 1018,7 hPa 0,0 l/m 0 min 0 min 9 W/m 6,4 km/h (2 Bft) 100,00 %
04.05.2022 06:18 7,3 C 6,7 C 3,3 C 87 % 1018,7 hPa 0,0 l/m 0 min 0 min 10 W/m 6,4 km/h (2 Bft) 100,00 %
04.05.2022 06:20 7,3 C 6,7 C 3,3 C 87 % 1018,7 hPa 0,0 l/m 0 min 0 min 11 W/m 6,4 km/h (2 Bft) 97,87 %
04.05.2022 06:22 7,3 C 6,7 C 3,3 C 87 % 1018,8 hPa 0,0 l/m 0 min 0 min 12 W/m 3,2 km/h (1 Bft) 100,00 %
04.05.2022 06:24 7,3 C 6,7 C 3,9 C 87 % 1018,7 hPa 0,0 l/m 0 min 0 min 12 W/m 9,7 km/h (2 Bft) 100,00 %
04.05.2022 06:26 7,3 C 6,7 C 3,9 C 87 % 1018,7 hPa 0,0 l/m 0 min 0 min 14 W/m 6,4 km/h (2 Bft) 100,00 %
04.05.2022 06:28 7,3 C 6,7 C 3,3 C 87 % 1018,8 hPa 0,0 l/m 0 min 0 min 15 W/m 6,4 km/h (2 Bft) 100,00 %
04.05.2022 06:30 7,3 C 6,7 C 3,3 C 87 % 1018,8 hPa 0,0 l/m 0 min 0 min 17 W/m 9,7 km/h (2 Bft) 100,00 %
04.05.2022 06:32 7,3 C 6,7 C 3,3 C 87 % 1018,8 hPa 0,0 l/m 0 min 0 min 18 W/m 12,9 km/h (3 Bft) 100,00 %
04.05.2022 06:34 7,3 C 6,7 C 3,3 C 87 % 1018,8 hPa 0,0 l/m 0 min 0 min 19 W/m 9,7 km/h (2 Bft) 97,87 %
04.05.2022 06:36 7,3 C 6,7 C 3,3 C 87 % 1018,8 hPa 0,0 l/m 0 min 0 min 21 W/m 3,2 km/h (1 Bft) 100,00 %
04.05.2022 06:38 7,3 C 6,7 C 3,3 C 87 % 1018,8 hPa 0,0 l/m 0 min 0 min 22 W/m 9,7 km/h (2 Bft) 100,00 %
04.05.2022 06:40 7,3 C 6,7 C 3,3 C 87 % 1018,8 hPa 0,0 l/m 0 min 0 min 24 W/m 3,2 km/h (1 Bft) 100,00 %
04.05.2022 06:42 7,3 C 6,7 C 3,3 C 87 % 1018,8 hPa 0,0 l/m 0 min 0 min 25 W/m 6,4 km/h (2 Bft) 97,87 %
04.05.2022 06:44 7,3 C 6,7 C 3,3 C 87 % 1018,8 hPa 0,0 l/m 0 min 0 min 26 W/m 6,4 km/h (2 Bft) 100,00 %
04.05.2022 06:46 7,3 C 6,7 C 3,3 C 87 % 1018,9 hPa 0,0 l/m 0 min 0 min 28 W/m 6,4 km/h (2 Bft) 97,83 %
04.05.2022 06:48 7,3 C 6,7 C 3,3 C 87 % 1018,8 hPa 0,0 l/m 0 min 0 min 29 W/m 12,9 km/h (3 Bft) 100,00 %
04.05.2022 06:50 7,3 C 6,7 C 3,3 C 87 % 1018,8 hPa 0,0 l/m 0 min 0 min 31 W/m 6,4 km/h (2 Bft) 100,00 %
04.05.2022 06:52 7,3 C 6,7 C 3,3 C 87 % 1018,8 hPa 0,0 l/m 0 min 0 min 32 W/m 6,4 km/h (2 Bft) 100,00 %
04.05.2022 06:54 7,3 C 6,7 C 3,3 C 87 % 1018,8 hPa 0,0 l/m 0 min 0 min 33 W/m 6,4 km/h (2 Bft) 100,00 %
04.05.2022 06:56 7,3 C 6,7 C 3,3 C 87 % 1018,8 hPa 0,0 l/m 0 min 0 min 35 W/m 6,4 km/h (2 Bft) 100,00 %
04.05.2022 06:58 7,3 C 6,7 C 3,9 C 87 % 1018,8 hPa 0,0 l/m 0 min 0 min 37 W/m 6,4 km/h (2 Bft) 100,00 %
04.05.2022 07:00 7,3 C 7,2 C 3,9 C 87 % 1018,8 hPa 0,0 l/m 0 min 0 min 38 W/m 6,4 km/h (2 Bft) 100,00 %
04.05.2022 07:02 7,3 C 7,2 C 3,9 C 87 % 1018,8 hPa 0,0 l/m 0 min 0 min 39 W/m 6,4 km/h (2 Bft) 100,00 %
04.05.2022 07:04 7,3 C 7,2 C 3,9 C 87 % 1018,8 hPa 0,0 l/m 0 min 0 min 42 W/m 6,4 km/h (2 Bft) 100,00 %
04.05.2022 07:06 7,4 C 7,2 C 3,9 C 87 % 1018,8 hPa 0,0 l/m 0 min 0 min 43 W/m 12,9 km/h (3 Bft) 100,00 %
04.05.2022 07:08 7,4 C 7,2 C 3,9 C 87 % 1018,8 hPa 0,0 l/m 0 min 0 min 46 W/m 9,7 km/h (2 Bft) 97,87 %
04.05.2022 07:10 7,4 C 7,2 C 3,9 C 87 % 1018,8 hPa 0,0 l/m 0 min 0 min 47 W/m 6,4 km/h (2 Bft) 100,00 %
04.05.2022 07:12 7,4 C 7,2 C 3,9 C 87 % 1018,8 hPa 0,0 l/m 0 min 0 min 49 W/m 6,4 km/h (2 Bft) 97,87 %
04.05.2022 07:14 7,4 C 7,2 C 3,9 C 87 % 1018,8 hPa 0,0 l/m 0 min 0 min 50 W/m 6,4 km/h (2 Bft) 100,00 %
04.05.2022 07:16 7,5 C 7,2 C 3,9 C 87 % 1018,8 hPa 0,0 l/m 0 min 0 min 52 W/m 6,4 km/h (2 Bft) 93,62 %
04.05.2022 07:18 7,5 C 7,2 C 3,9 C 87 % 1018,8 hPa 0,0 l/m 0 min 0 min 54 W/m 6,4 km/h (2 Bft) 97,87 %
04.05.2022 07:20 7,5 C 7,2 C 3,9 C 87 % 1018,9 hPa 0,0 l/m 0 min 0 min 55 W/m 9,7 km/h (2 Bft) 95,74 %
04.05.2022 07:22 7,6 C 7,2 C 3,9 C 87 % 1018,9 hPa 0,0 l/m 0 min 0 min 58 W/m 6,4 km/h (2 Bft) 53,33 %
04.05.2022 07:24 7,6 C 7,2 C 3,9 C 87 % 1018,9 hPa 0,0 l/m 0 min 0 min 61 W/m 6,4 km/h (2 Bft) 95,45 %
04.05.2022 07:26 7,6 C 7,8 C 4,4 C 87 % 1018,8 hPa 0,0 l/m 0 min 0 min 65 W/m 3,2 km/h (1 Bft) 97,87 %
04.05.2022 07:28 7,7 C 7,8 C 4,4 C 87 % 1018,8 hPa 0,0 l/m 0 min 0 min 69 W/m 6,4 km/h (2 Bft) 93,62 %
04.05.2022 07:30 7,7 C 7,8 C 4,4 C 87 % 1018,9 hPa 0,0 l/m 0 min 0 min 74 W/m 6,4 km/h (2 Bft) 95,74 %
04.05.2022 07:32 7,8 C 7,8 C 4,4 C 87 % 1018,8 hPa 0,0 l/m 0 min 0 min 77 W/m 6,4 km/h (2 Bft) 95,74 %
04.05.2022 07:34 7,8 C 7,8 C 4,4 C 87 % 1018,8 hPa 0,0 l/m 0 min 0 min 79 W/m 3,2 km/h (1 Bft) 93,48 %
04.05.2022 07:36 7,8 C 7,8 C 4,4 C 87 % 1018,8 hPa 0,0 l/m 0 min 0 min 81 W/m 6,4 km/h (2 Bft) 95,74 %
04.05.2022 07:38 7,9 C 7,8 C 4,4 C 86 % 1018,8 hPa 0,0 l/m 0 min 0 min 84 W/m 12,9 km/h (3 Bft) 95,74 %
04.05.2022 07:40 7,9 C 8,3 C 4,4 C 86 % 1018,8 hPa 0,0 l/m 0 min 0 min 87 W/m 6,4 km/h (2 Bft) 95,74 %
04.05.2022 07:42 8,0 C 8,3 C 4,4 C 86 % 1018,8 hPa 0,0 l/m 0 min 0 min 88 W/m 6,4 km/h (2 Bft) 93,62 %
04.05.2022 07:44 8,1 C 8,3 C 5,0 C 86 % 1018,8 hPa 0,0 l/m 0 min 0 min 92 W/m 6,4 km/h (2 Bft) 91,49 %
04.05.2022 07:46 8,2 C 8,3 C 5,0 C 86 % 1018,8 hPa 0,0 l/m 0 min 0 min 100 W/m 9,7 km/h (2 Bft) 93,48 %
04.05.2022 07:48 8,2 C 8,3 C 5,0 C 86 % 1018,8 hPa 0,0 l/m 0 min 0 min 108 W/m 3,2 km/h (1 Bft) 95,74 %
04.05.2022 07:50 8,3 C 8,3 C 5,0 C 86 % 1018,8 hPa 0,0 l/m 0 min 0 min 115 W/m 9,7 km/h (2 Bft) 95,74 %
04.05.2022 07:52 8,4 C 8,9 C 5,0 C 86 % 1018,8 hPa 0,0 l/m 0 min 0 min 120 W/m 6,4 km/h (2 Bft) 93,62 %
04.05.2022 07:54 8,4 C 8,9 C 5,0 C 85 % 1018,8 hPa 0,0 l/m 0 min 0 min 120 W/m 9,7 km/h (2 Bft) 95,74 %
04.05.2022 07:56 8,5 C 8,9 C 5,0 C 85 % 1018,8 hPa 0,0 l/m 0 min 0 min 120 W/m 9,7 km/h (2 Bft) 95,74 %
04.05.2022 07:58 8,6 C 8,9 C 5,6 C 85 % 1018,9 hPa 0,0 l/m 0 min 0 min 119 W/m 12,9 km/h (3 Bft) 95,65 %
04.05.2022 08:00 8,7 C 8,9 C 5,6 C 85 % 1018,9 hPa 0,0 l/m 0 min 0 min 115 W/m 12,9 km/h (3 Bft) 95,74 %
04.05.2022 08:02 8,7 C 8,9 C 5,6 C 84 % 1018,9 hPa 0,0 l/m 0 min 0 min 113 W/m 9,7 km/h (2 Bft) 93,62 %
04.05.2022 08:04 8,8 C 8,9 C 5,6 C 84 % 1018,8 hPa 0,0 l/m 0 min 0 min 111 W/m 16,1 km/h (3 Bft) 95,74 %
04.05.2022 08:06 8,8 C 8,9 C 5,6 C 84 % 1018,9 hPa 0,0 l/m 0 min 0 min 110 W/m 9,7 km/h (2 Bft) 95,74 %
04.05.2022 08:08 8,8 C 9,4 C 5,6 C 84 % 1018,8 hPa 0,0 l/m 0 min 0 min 109 W/m 9,7 km/h (2 Bft) 91,49 %
04.05.2022 08:10 8,8 C 8,9 C 5,6 C 84 % 1018,8 hPa 0,0 l/m 0 min 0 min 125 W/m 6,4 km/h (2 Bft) 95,65 %
04.05.2022 08:12 8,9 C 8,9 C 5,6 C 84 % 1018,9 hPa 0,0 l/m 2 min 0 min 167 W/m 6,4 km/h (2 Bft) 95,74 %
04.05.2022 08:14 8,9 C 9,4 C 5,6 C 83 % 1018,9 hPa 0,0 l/m 2 min 0 min 187 W/m 6,4 km/h (2 Bft) 93,62 %
04.05.2022 08:16 8,9 C 9,4 C 5,6 C 83 % 1018,9 hPa 0,0 l/m 0 min 0 min 148 W/m 9,7 km/h (2 Bft) 95,74 %
04.05.2022 08:18 9,0 C 9,4 C 5,6 C 83 % 1018,9 hPa 0,0 l/m 0 min 0 min 115 W/m 12,9 km/h (3 Bft) 95,74 %
04.05.2022 08:20 9,1 C 8,9 C 5,6 C 83 % 1018,9 hPa 0,0 l/m 0 min 0 min 153 W/m 12,9 km/h (3 Bft) 97,87 %
04.05.2022 08:22 9,1 C 9,4 C 5,6 C 83 % 1018,8 hPa 0,0 l/m 2 min 0 min 219 W/m 12,9 km/h (3 Bft) 97,83 %
04.05.2022 08:24 9,1 C 9,4 C 5,6 C 83 % 1018,8 hPa 0,0 l/m 2 min 0 min 230 W/m 12,9 km/h (3 Bft) 97,87 %
04.05.2022 08:26 9,1 C 9,4 C 5,6 C 83 % 1018,8 hPa 0,0 l/m 2 min 0 min 226 W/m 9,7 km/h (2 Bft) 97,87 %
04.05.2022 08:28 9,1 C 9,4 C 5,6 C 83 % 1018,9 hPa 0,0 l/m 0 min 0 min 133 W/m 6,4 km/h (2 Bft) 95,74 %
04.05.2022 08:30 9,2 C 9,4 C 5,6 C 83 % 1018,9 hPa 0,0 l/m 0 min 0 min 139 W/m 16,1 km/h (3 Bft) 97,87 %
04.05.2022 08:32 9,2 C 9,4 C 5,6 C 83 % 1018,9 hPa 0,0 l/m 0 min 0 min 158 W/m 12,9 km/h (3 Bft) 97,83 %
04.05.2022 08:34 9,2 C 9,4 C 5,6 C 83 % 1018,9 hPa 0,0 l/m 0 min 0 min 149 W/m 6,4 km/h (2 Bft) 100,00 %
04.05.2022 08:36 9,3 C 9,4 C 6,1 C 83 % 1018,9 hPa 0,0 l/m 0 min 0 min 156 W/m 12,9 km/h (3 Bft) 100,00 %
04.05.2022 08:38 9,3 C 9,4 C 6,1 C 83 % 1019,0 hPa 0,0 l/m 2 min 0 min 259 W/m 12,9 km/h (3 Bft) 100,00 %
04.05.2022 08:40 9,3 C 10,0 C 6,1 C 83 % 1019,0 hPa 0,0 l/m 2 min 0 min 299 W/m 6,4 km/h (2 Bft) 100,00 %
04.05.2022 08:42 9,4 C 10,0 C 6,1 C 83 % 1019,0 hPa 0,0 l/m 2 min 0 min 288 W/m 3,2 km/h (1 Bft) 100,00 %
04.05.2022 08:44 9,4 C 10,0 C 6,1 C 83 % 1019,1 hPa 0,0 l/m 2 min 0 min 288 W/m 9,7 km/h (2 Bft) 100,00 %
04.05.2022 08:46 9,6 C 10,6 C 6,1 C 83 % 1019,1 hPa 0,0 l/m 2 min 0 min 290 W/m 12,9 km/h (3 Bft) 100,00 %
04.05.2022 08:48 9,6 C 11,1 C 6,1 C 82 % 1019,1 hPa 0,0 l/m 2 min 0 min 299 W/m 9,7 km/h (2 Bft) 100,00 %
04.05.2022 08:50 9,7 C 12,2 C 6,1 C 82 % 1019,0 hPa 0,0 l/m 2 min 0 min 311 W/m 6,4 km/h (2 Bft) 100,00 %
04.05.2022 08:52 9,8 C 13,3 C 6,7 C 82 % 1019,0 hPa 0,0 l/m 2 min 0 min 316 W/m 9,7 km/h (2 Bft) 100,00 %
04.05.2022 08:54 10,0 C 13,9 C 6,7 C 82 % 1019,1 hPa 0,0 l/m 2 min 0 min 320 W/m 6,4 km/h (2 Bft) 100,00 %
04.05.2022 08:56 10,1 C 14,4 C 6,7 C 82 % 1019,1 hPa 0,0 l/m 2 min 0 min 334 W/m 6,4 km/h (2 Bft) 100,00 %
04.05.2022 08:58 10,3 C 15,0 C 7,2 C 82 % 1019,0 hPa 0,0 l/m 2 min 0 min 346 W/m 6,4 km/h (2 Bft) 100,00 %
04.05.2022 09:00 10,5 C 15,6 C 7,8 C 81 % 1019,1 hPa 0,0 l/m 2 min 0 min 351 W/m 12,9 km/h (3 Bft) 100,00 %
04.05.2022 09:02 10,7 C 15,6 C 7,8 C 81 % 1019,1 hPa 0,0 l/m 2 min 0 min 359 W/m 12,9 km/h (3 Bft) 97,87 %
04.05.2022 09:04 10,8 C 15,6 C 7,8 C 80 % 1019,1 hPa 0,0 l/m 2 min 0 min 368 W/m 12,9 km/h (3 Bft) 97,87 %
04.05.2022 09:06 10,9 C 15,6 C 8,3 C 79 % 1019,1 hPa 0,0 l/m 2 min 0 min 377 W/m 9,7 km/h (2 Bft) 100,00 %
04.05.2022 09:08 11,0 C 15,6 C 8,9 C 79 % 1019,1 hPa 0,0 l/m 2 min 0 min 380 W/m 9,7 km/h (2 Bft) 100,00 %
04.05.2022 09:10 11,1 C 15,6 C 8,9 C 78 % 1019,1 hPa 0,0 l/m 2 min 0 min 385 W/m 6,4 km/h (2 Bft) 100,00 %
04.05.2022 09:12 11,2 C 15,6 C 8,9 C 78 % 1019,0 hPa 0,0 l/m 2 min 0 min 388 W/m 6,4 km/h (2 Bft) 100,00 %
04.05.2022 09:14 11,3 C 16,7 C 8,9 C 78 % 1019,0 hPa 0,0 l/m 2 min 0 min 401 W/m 9,7 km/h (2 Bft) 97,87 %
04.05.2022 09:16 11,4 C 16,7 C 9,4 C 78 % 1019,0 hPa 0,0 l/m 2 min 0 min 407 W/m 6,4 km/h (2 Bft) 95,74 %
04.05.2022 09:18 11,5 C 15,6 C 9,4 C 77 % 1019,0 hPa 0,0 l/m 2 min 0 min 413 W/m 6,4 km/h (2 Bft) 97,87 %
04.05.2022 09:20 11,6 C 16,1 C 9,4 C 77 % 1019,1 hPa 0,0 l/m 2 min 0 min 417 W/m 6,4 km/h (2 Bft) 97,83 %
04.05.2022 09:22 11,7 C 16,1 C 10,0 C 77 % 1019,1 hPa 0,0 l/m 2 min 0 min 418 W/m 9,7 km/h (2 Bft) 97,87 %
04.05.2022 09:24 11,7 C 16,7 C 10,0 C 76 % 1019,1 hPa 0,0 l/m 2 min 0 min 415 W/m 9,7 km/h (2 Bft) 95,74 %
04.05.2022 09:26 11,7 C 16,1 C 10,0 C 76 % 1019,1 hPa 0,0 l/m 2 min 0 min 387 W/m 9,7 km/h (2 Bft) 97,87 %
04.05.2022 09:28 11,7 C 16,1 C 10,0 C 76 % 1019,1 hPa 0,0 l/m 2 min 0 min 433 W/m 9,7 km/h (2 Bft) 97,87 %
04.05.2022 09:30 11,8 C 16,7 C 10,0 C 76 % 1019,1 hPa 0,0 l/m 2 min 0 min 443 W/m 12,9 km/h (3 Bft) 97,87 %
04.05.2022 09:32 11,9 C 16,1 C 10,6 C 76 % 1019,1 hPa 0,0 l/m 2 min 0 min 449 W/m 12,9 km/h (3 Bft) 95,65 %
04.05.2022 09:34 11,9 C 15,6 C 10,0 C 75 % 1019,2 hPa 0,0 l/m 2 min 0 min 412 W/m 12,9 km/h (3 Bft) 97,87 %
04.05.2022 09:36 12,0 C 16,1 C 10,6 C 75 % 1019,1 hPa 0,0 l/m 2 min 0 min 445 W/m 9,7 km/h (2 Bft) 95,74 %
04.05.2022 09:38 12,1 C 16,7 C 10,6 C 75 % 1019,1 hPa 0,0 l/m 2 min 0 min 465 W/m 9,7 km/h (2 Bft) 97,87 %
04.05.2022 09:40 12,1 C 16,7 C 11,1 C 75 % 1019,1 hPa 0,0 l/m 2 min 0 min 460 W/m 9,7 km/h (2 Bft) 97,87 %
04.05.2022 09:42 12,2 C 16,7 C 11,1 C 75 % 1019,1 hPa 0,0 l/m 2 min 0 min 458 W/m 12,9 km/h (3 Bft) 95,74 %
04.05.2022 09:44 12,3 C 16,7 C 10,6 C 74 % 1019,1 hPa 0,0 l/m 2 min 0 min 464 W/m 9,7 km/h (2 Bft) 97,83 %
04.05.2022 09:46 12,4 C 17,2 C 10,6 C 75 % 1019,2 hPa 0,0 l/m 2 min 0 min 482 W/m 12,9 km/h (3 Bft) 97,87 %
04.05.2022 09:48 12,5 C 17,2 C 10,0 C 75 % 1019,2 hPa 0,0 l/m 2 min 0 min 472 W/m 6,4 km/h (2 Bft) 97,87 %
04.05.2022 09:50 12,6 C 17,8 C 10,0 C 74 % 1019,2 hPa 0,0 l/m 2 min 0 min 448 W/m 9,7 km/h (2 Bft) 100,00 %
04.05.2022 09:52 12,7 C 17,8 C 9,4 C 74 % 1019,2 hPa 0,0 l/m 2 min 0 min 400 W/m 12,9 km/h (3 Bft) 100,00 %
04.05.2022 09:54 12,7 C 18,3 C 9,4 C 74 % 1019,2 hPa 0,0 l/m 0 min 0 min 244 W/m 9,7 km/h (2 Bft) 100,00 %
04.05.2022 09:56 12,8 C 18,3 C 9,4 C 74 % 1019,2 hPa 0,0 l/m 0 min 0 min 209 W/m 12,9 km/h (3 Bft) 100,00 %
04.05.2022 09:58 12,7 C 17,2 C 8,9 C 72 % 1019,2 hPa 0,0 l/m 0 min 0 min 271 W/m 12,9 km/h (3 Bft) 100,00 %
04.05.2022 10:00 12,6 C 17,2 C 8,9 C 72 % 1019,2 hPa 0,0 l/m 2 min 0 min 437 W/m 9,7 km/h (2 Bft) 100,00 %
04.05.2022 10:02 12,6 C 17,2 C 8,9 C 73 % 1019,2 hPa 0,0 l/m 2 min 0 min 495 W/m 9,7 km/h (2 Bft) 100,00 %
04.05.2022 10:04 12,6 C 16,7 C 8,9 C 73 % 1019,2 hPa 0,0 l/m 2 min 0 min 315 W/m 12,9 km/h (3 Bft) 97,87 %
04.05.2022 10:06 12,6 C 17,8 C 8,9 C 74 % 1019,2 hPa 0,0 l/m 2 min 0 min 306 W/m 9,7 km/h (2 Bft) 97,87 %
04.05.2022 10:08 12,8 C 18,3 C 8,9 C 74 % 1019,2 hPa 0,0 l/m 2 min 0 min 324 W/m 9,7 km/h (2 Bft) 97,83 %
04.05.2022 10:10 12,7 C 17,2 C 8,9 C 72 % 1019,2 hPa 0,0 l/m 2 min 0 min 347 W/m 12,9 km/h (3 Bft) 97,87 %
04.05.2022 10:12 12,7 C 17,2 C 8,9 C 73 % 1019,2 hPa 0,0 l/m 2 min 0 min 383 W/m 19,3 km/h (3 Bft) 95,74 %
04.05.2022 10:14 12,7 C 17,8 C 9,4 C 73 % 1019,2 hPa 0,0 l/m 2 min 0 min 541 W/m 16,1 km/h (3 Bft) 97,87 %
04.05.2022 10:16 12,8 C 18,3 C 9,4 C 73 % 1019,2 hPa 0,0 l/m 2 min 0 min 564 W/m 9,7 km/h (2 Bft) 97,87 %
04.05.2022 10:18 12,9 C 18,3 C 9,4 C 73 % 1019,2 hPa 0,0 l/m 2 min 0 min 557 W/m 9,7 km/h (2 Bft) 97,87 %
04.05.2022 10:20 12,9 C 18,3 C 9,4 C 73 % 1019,1 hPa 0,0 l/m 2 min 0 min 582 W/m 12,9 km/h (3 Bft) 95,65 %
04.05.2022 10:22 13,1 C 18,3 C 9,4 C 73 % 1019,2 hPa 0,0 l/m 2 min 0 min 591 W/m 12,9 km/h (3 Bft) 97,87 %
04.05.2022 10:24 13,2 C 18,9 C 10,0 C 73 % 1019,2 hPa 0,0 l/m 2 min 0 min 601 W/m 9,7 km/h (2 Bft) 97,87 %
04.05.2022 10:26 13,3 C 18,9 C 10,6 C 73 % 1019,1 hPa 0,0 l/m 2 min 0 min 605 W/m 9,7 km/h (2 Bft) 97,87 %
04.05.2022 10:28 13,4 C 18,3 C 10,6 C 72 % 1019,2 hPa 0,0 l/m 2 min 0 min 590 W/m 16,1 km/h (3 Bft) 97,87 %
04.05.2022 10:30 13,4 C 18,3 C 10,6 C 72 % 1019,1 hPa 0,0 l/m 2 min 0 min 539 W/m 9,7 km/h (2 Bft) 97,87 %
04.05.2022 10:32 13,6 C 18,3 C 10,6 C 72 % 1019,1 hPa 0,0 l/m 2 min 0 min 409 W/m 12,9 km/h (3 Bft) 97,83 %
04.05.2022 10:34 13,6 C 18,3 C 10,6 C 71 % 1019,1 hPa 0,0 l/m 2 min 0 min 524 W/m 6,4 km/h (2 Bft) 97,87 %
04.05.2022 10:36 13,7 C 17,8 C 10,6 C 71 % 1019,1 hPa 0,0 l/m 2 min 0 min 566 W/m 6,4 km/h (2 Bft) 97,87 %
04.05.2022 10:38 13,7 C 17,2 C 11,1 C 71 % 1019,1 hPa 0,0 l/m 2 min 0 min 617 W/m 12,9 km/h (3 Bft) 95,74 %
04.05.2022 10:40 13,7 C 17,2 C 11,7 C 71 % 1019,2 hPa 0,0 l/m 2 min 0 min 617 W/m 6,4 km/h (2 Bft) 97,87 %
04.05.2022 10:42 13,7 C 17,2 C 11,7 C 72 % 1019,2 hPa 0,0 l/m 2 min 0 min 621 W/m 12,9 km/h (3 Bft) 97,87 %
04.05.2022 10:44 13,8 C 17,2 C 11,7 C 71 % 1019,2 hPa 0,0 l/m 2 min 0 min 638 W/m 12,9 km/h (3 Bft) 95,65 %
04.05.2022 10:46 13,8 C 16,7 C 11,7 C 71 % 1019,2 hPa 0,0 l/m 2 min 0 min 648 W/m 12,9 km/h (3 Bft) 97,87 %
04.05.2022 10:48 13,9 C 16,1 C 11,7 C 71 % 1019,2 hPa 0,0 l/m 2 min 0 min 656 W/m 12,9 km/h (3 Bft) 97,87 %
04.05.2022 10:50 13,8 C 16,1 C 11,7 C 71 % 1019,2 hPa 0,0 l/m 2 min 0 min 650 W/m 6,4 km/h (2 Bft) 97,87 %
04.05.2022 10:52 13,8 C 15,6 C 11,1 C 71 % 1019,3 hPa 0,0 l/m 2 min 0 min 656 W/m 9,7 km/h (2 Bft) 97,87 %
04.05.2022 10:54 13,8 C 15,6 C 11,1 C 71 % 1019,2 hPa 0,0 l/m 2 min 0 min 658 W/m 6,4 km/h (2 Bft) 97,87 %
04.05.2022 10:56 13,8 C 15,0 C 11,1 C 72 % 1019,2 hPa 0,0 l/m 2 min 0 min 657 W/m 6,4 km/h (2 Bft) 95,56 %
04.05.2022 10:58 13,9 C 15,6 C 11,1 C 72 % 1019,2 hPa 0,0 l/m 2 min 0 min 655 W/m 16,1 km/h (3 Bft) 95,74 %
04.05.2022 11:00 13,9 C 15,6 C 11,1 C 71 % 1019,2 hPa 0,0 l/m 2 min 0 min 654 W/m 12,9 km/h (3 Bft) 100,00 %
04.05.2022 11:02 14,0 C 16,1 C 11,1 C 71 % 1019,1 hPa 0,0 l/m 2 min 0 min 665 W/m 9,7 km/h (2 Bft) 100,00 %
04.05.2022 11:04 14,1 C 15,6 C 11,1 C 71 % 1019,1 hPa 0,0 l/m 2 min 0 min 658 W/m 12,9 km/h (3 Bft) 100,00 %
04.05.2022 11:06 14,2 C 15,6 C 11,1 C 71 % 1019,1 hPa 0,0 l/m 2 min 0 min 672 W/m 16,1 km/h (3 Bft) 97,87 %
04.05.2022 11:08 14,3 C 15,6 C 11,1 C 71 % 1019,1 hPa 0,0 l/m 2 min 0 min 687 W/m 12,9 km/h (3 Bft) 95,65 %
04.05.2022 11:10 14,3 C 15,6 C 11,1 C 71 % 1019,1 hPa 0,0 l/m 2 min 0 min 698 W/m 12,9 km/h (3 Bft) 97,87 %
04.05.2022 11:12 14,3 C 16,1 C 11,1 C 70 % 1019,1 hPa 0,0 l/m 2 min 0 min 706 W/m 9,7 km/h (2 Bft) 97,87 %
04.05.2022 11:14 14,3 C 16,1 C 11,1 C 70 % 1019,1 hPa 0,0 l/m 2 min 0 min 711 W/m 22,5 km/h (4 Bft) 95,74 %
04.05.2022 11:16 14,4 C 16,1 C 11,1 C 70 % 1019,0 hPa 0,0 l/m 2 min 0 min 714 W/m 9,7 km/h (2 Bft) 97,87 %
04.05.2022 11:18 14,5 C 16,1 C 11,1 C 69 % 1019,1 hPa 0,0 l/m 2 min 0 min 721 W/m 12,9 km/h (3 Bft) 97,87 %
04.05.2022 11:20 14,6 C 16,1 C 11,1 C 69 % 1019,1 hPa 0,0 l/m 2 min 0 min 726 W/m 9,7 km/h (2 Bft) 95,65 %
04.05.2022 11:22 14,6 C 16,7 C 11,7 C 69 % 1019,1 hPa 0,0 l/m 2 min 0 min 724 W/m 12,9 km/h (3 Bft) 97,87 %
04.05.2022 11:24 14,6 C 16,1 C 11,1 C 69 % 1019,1 hPa 0,0 l/m 2 min 0 min 735 W/m 12,9 km/h (3 Bft) 97,87 %
04.05.2022 11:26 14,6 C 16,1 C 11,1 C 68 % 1019,1 hPa 0,0 l/m 2 min 0 min 731 W/m 16,1 km/h (3 Bft) 95,74 %
04.05.2022 11:28 14,7 C 16,7 C 11,7 C 68 % 1019,0 hPa 0,0 l/m 2 min 0 min 747 W/m 12,9 km/h (3 Bft) 97,87 %
04.05.2022 11:30 14,7 C 17,2 C 12,2 C 68 % 1019,1 hPa 0,0 l/m 2 min 0 min 754 W/m 12,9 km/h (3 Bft) 97,87 %
04.05.2022 11:32 14,7 C 17,2 C 12,2 C 68 % 1019,1 hPa 0,0 l/m 2 min 0 min 760 W/m 12,9 km/h (3 Bft) 97,83 %
04.05.2022 11:34 14,7 C 17,2 C 12,2 C 68 % 1019,1 hPa 0,0 l/m 2 min 0 min 758 W/m 16,1 km/h (3 Bft) 95,74 %
04.05.2022 11:36 14,7 C 17,8 C 12,2 C 67 % 1019,1 hPa 0,0 l/m 2 min 0 min 759 W/m 12,9 km/h (3 Bft) 97,87 %
04.05.2022 11:38 14,7 C 17,8 C 12,8 C 68 % 1019,1 hPa 0,0 l/m 2 min 0 min 780 W/m 9,7 km/h (2 Bft) 97,87 %
04.05.2022 11:40 14,7 C 17,8 C 12,8 C 69 % 1019,1 hPa 0,0 l/m 2 min 0 min 772 W/m 6,4 km/h (2 Bft) 97,87 %
04.05.2022 11:42 14,8 C 17,8 C 12,8 C 69 % 1019,1 hPa 0,0 l/m 2 min 0 min 770 W/m 25,7 km/h (4 Bft) 97,87 %
04.05.2022 11:44 14,8 C 17,8 C 12,2 C 68 % 1019,1 hPa 0,0 l/m 2 min 0 min 764 W/m 12,9 km/h (3 Bft) 97,83 %
04.05.2022 11:46 14,9 C 18,3 C 12,2 C 68 % 1019,1 hPa 0,0 l/m 2 min 0 min 745 W/m 16,1 km/h (3 Bft) 97,87 %
04.05.2022 11:48 14,9 C 17,8 C 12,2 C 68 % 1019,1 hPa 0,0 l/m 2 min 0 min 780 W/m 19,3 km/h (3 Bft) 97,87 %
04.05.2022 11:50 14,9 C 17,2 C 12,2 C 68 % 1019,1 hPa 0,0 l/m 2 min 0 min 793 W/m 16,1 km/h (3 Bft) 100,00 %
04.05.2022 11:52 15,0 C 17,2 C 13,3 C 68 % 1019,1 hPa 0,0 l/m 2 min 0 min 812 W/m 12,9 km/h (3 Bft) 100,00 %
04.05.2022 11:54 15,1 C 17,8 C 13,3 C 68 % 1019,1 hPa 0,0 l/m 2 min 0 min 814 W/m 9,7 km/h (2 Bft) 97,87 %
04.05.2022 11:56 15,2 C 17,8 C 13,9 C 68 % 1019,1 hPa 0,0 l/m 2 min 0 min 821 W/m 6,4 km/h (2 Bft) 100,00 %
04.05.2022 11:58 15,2 C 18,3 C 13,3 C 68 % 1019,1 hPa 0,0 l/m 2 min 0 min 818 W/m 12,9 km/h (3 Bft) 100,00 %
04.05.2022 12:00 15,3 C 18,3 C 13,9 C 67 % 1019,1 hPa 0,0 l/m 2 min 0 min 816 W/m 9,7 km/h (2 Bft) 100,00 %
04.05.2022 12:02 15,3 C 18,9 C 13,3 C 67 % 1019,0 hPa 0,0 l/m 2 min 0 min 816 W/m 9,7 km/h (2 Bft) 100,00 %
04.05.2022 12:04 15,4 C 18,9 C 13,9 C 67 % 1019,0 hPa 0,0 l/m 2 min 0 min 834 W/m 9,7 km/h (2 Bft) 100,00 %
04.05.2022 12:07 15,6 C 19,4 C 16,1 C 67 % 1019,0 hPa 0,0 l/m 3 min 0 min 842 W/m 16,1 km/h (3 Bft) 98,57 %
04.05.2022 12:08 15,7 C 18,9 C 16,7 C 66 % 1019,0 hPa 0,0 l/m 1 min 0 min 773 W/m 6,4 km/h (2 Bft) 100,00 %
04.05.2022 12:10 15,7 C 18,9 C 17,2 C 66 % 1019,0 hPa 0,0 l/m 2 min 0 min 811 W/m 25,7 km/h (4 Bft) 97,87 %
04.05.2022 12:12 15,8 C 18,9 C 18,3 C 65 % 1019,1 hPa 0,0 l/m 2 min 0 min 837 W/m 16,1 km/h (3 Bft) 100,00 %
04.05.2022 12:14 15,8 C 18,3 C 18,3 C 65 % 1019,0 hPa 0,0 l/m 2 min 0 min 839 W/m 12,9 km/h (3 Bft) 100,00 %
04.05.2022 12:16 15,8 C 18,9 C 18,9 C 66 % 1019,0 hPa 0,0 l/m 2 min 0 min 845 W/m 19,3 km/h (3 Bft) 100,00 %
04.05.2022 12:18 15,9 C 18,9 C 18,9 C 65 % 1019,0 hPa 0,0 l/m 2 min 0 min 832 W/m 16,1 km/h (3 Bft) 100,00 %
04.05.2022 12:20 16,0 C 18,9 C 19,4 C 64 % 1019,0 hPa 0,0 l/m 2 min 0 min 837 W/m 16,1 km/h (3 Bft) 100,00 %
04.05.2022 12:22 16,1 C 19,4 C 20,0 C 64 % 1019,0 hPa 0,0 l/m 2 min 0 min 848 W/m 9,7 km/h (2 Bft) 100,00 %
04.05.2022 12:24 16,0 C 18,9 C 21,1 C 63 % 1019,0 hPa 0,0 l/m 2 min 0 min 854 W/m 6,4 km/h (2 Bft) 100,00 %
04.05.2022 12:26 16,0 C 19,4 C 21,1 C 64 % 1019,0 hPa 0,0 l/m 2 min 0 min 852 W/m 16,1 km/h (3 Bft) 100,00 %
04.05.2022 12:28 16,1 C 19,4 C 21,1 C 63 % 1018,9 hPa 0,0 l/m 2 min 0 min 855 W/m 12,9 km/h (3 Bft) 100,00 %
04.05.2022 12:30 16,1 C 19,4 C 20,6 C 63 % 1019,0 hPa 0,0 l/m 2 min 0 min 866 W/m 16,1 km/h (3 Bft) 100,00 %
04.05.2022 12:32 16,1 C 18,3 C 20,0 C 63 % 1018,9 hPa 0,0 l/m 2 min 0 min 873 W/m 9,7 km/h (2 Bft) 100,00 %
04.05.2022 12:34 16,1 C 18,9 C 20,0 C 63 % 1018,9 hPa 0,0 l/m 2 min 0 min 895 W/m 12,9 km/h (3 Bft) 100,00 %
04.05.2022 12:36 16,1 C 19,4 C 20,6 C 63 % 1018,9 hPa 0,0 l/m 2 min 0 min 881 W/m 12,9 km/h (3 Bft) 100,00 %
04.05.2022 12:38 16,2 C 20,0 C 21,1 C 63 % 1018,9 hPa 0,0 l/m 2 min 0 min 875 W/m 12,9 km/h (3 Bft) 100,00 %
04.05.2022 12:40 16,3 C 19,4 C 21,1 C 63 % 1018,9 hPa 0,0 l/m 2 min 0 min 889 W/m 16,1 km/h (3 Bft) 100,00 %
04.05.2022 12:42 16,4 C 20,0 C 21,1 C 63 % 1018,9 hPa 0,0 l/m 2 min 0 min 887 W/m 9,7 km/h (2 Bft) 100,00 %
04.05.2022 12:44 16,5 C 20,0 C 20,6 C 62 % 1018,9 hPa 0,0 l/m 2 min 0 min 902 W/m 19,3 km/h (3 Bft) 97,83 %
04.05.2022 12:46 16,6 C 20,6 C 21,7 C 62 % 1018,8 hPa 0,0 l/m 2 min 0 min 906 W/m 6,4 km/h (2 Bft) 97,87 %
04.05.2022 12:48 16,6 C 20,6 C 20,6 C 62 % 1018,8 hPa 0,0 l/m 2 min 0 min 898 W/m 12,9 km/h (3 Bft) 95,74 %
04.05.2022 12:50 16,7 C 20,0 C 18,3 C 61 % 1018,9 hPa 0,0 l/m 2 min 0 min 894 W/m 19,3 km/h (3 Bft) 97,87 %
04.05.2022 12:52 16,7 C 20,0 C 17,8 C 61 % 1018,9 hPa 0,0 l/m 2 min 0 min 877 W/m 9,7 km/h (2 Bft) 97,87 %
04.05.2022 12:54 16,6 C 20,0 C 17,2 C 61 % 1018,8 hPa 0,0 l/m 2 min 0 min 892 W/m 9,7 km/h (2 Bft) 97,87 %
04.05.2022 12:56 16,6 C 20,0 C 16,1 C 62 % 1018,9 hPa 0,0 l/m 2 min 0 min 873 W/m 16,1 km/h (3 Bft) 95,65 %
04.05.2022 12:58 16,7 C 20,0 C 15,6 C 61 % 1018,9 hPa 0,0 l/m 2 min 0 min 876 W/m 19,3 km/h (3 Bft) 97,87 %
04.05.2022 13:00 16,8 C 20,0 C 15,0 C 60 % 1018,9 hPa 0,0 l/m 2 min 0 min 874 W/m 16,1 km/h (3 Bft) 97,87 %
04.05.2022 13:02 16,8 C 19,4 C 14,4 C 59 % 1018,9 hPa 0,0 l/m 2 min 0 min 867 W/m 12,9 km/h (3 Bft) 97,87 %
04.05.2022 13:04 16,8 C 20,0 C 14,4 C 59 % 1018,8 hPa 0,0 l/m 2 min 0 min 885 W/m 9,7 km/h (2 Bft) 97,87 %
04.05.2022 13:06 16,9 C 20,0 C 13,9 C 59 % 1018,8 hPa 0,0 l/m 2 min 0 min 894 W/m 9,7 km/h (2 Bft) 97,87 %
04.05.2022 13:08 16,9 C 20,0 C 13,9 C 59 % 1018,8 hPa 0,0 l/m 2 min 0 min 899 W/m 6,4 km/h (2 Bft) 97,83 %
04.05.2022 13:10 17,0 C 20,0 C 13,9 C 58 % 1018,8 hPa 0,0 l/m 2 min 0 min 899 W/m 9,7 km/h (2 Bft) 95,74 %
04.05.2022 13:12 17,0 C 19,4 C 13,9 C 59 % 1018,8 hPa 0,0 l/m 2 min 0 min 897 W/m 9,7 km/h (2 Bft) 95,74 %
04.05.2022 13:14 17,1 C 19,4 C 13,9 C 59 % 1018,7 hPa 0,0 l/m 2 min 0 min 902 W/m 12,9 km/h (3 Bft) 93,62 %
04.05.2022 13:16 17,1 C 19,4 C 13,3 C 60 % 1018,8 hPa 0,0 l/m 2 min 0 min 904 W/m 16,1 km/h (3 Bft) 97,87 %
04.05.2022 13:18 17,1 C 19,4 C 13,3 C 60 % 1018,7 hPa 0,0 l/m 2 min 0 min 899 W/m 12,9 km/h (3 Bft) 95,65 %
04.05.2022 13:20 17,1 C 19,4 C 13,3 C 58 % 1018,8 hPa 0,0 l/m 2 min 0 min 896 W/m 12,9 km/h (3 Bft) 95,74 %
04.05.2022 13:22 17,1 C 20,0 C 13,3 C 59 % 1018,7 hPa 0,0 l/m 2 min 0 min 898 W/m 9,7 km/h (2 Bft) 95,74 %
04.05.2022 13:24 17,2 C 20,0 C 13,9 C 57 % 1018,7 hPa 0,0 l/m 2 min 0 min 903 W/m 12,9 km/h (3 Bft) 95,74 %
04.05.2022 13:26 17,2 C 19,4 C 13,9 C 56 % 1018,7 hPa 0,0 l/m 2 min 0 min 904 W/m 9,7 km/h (2 Bft) 95,74 %
04.05.2022 13:28 17,2 C 20,0 C 13,9 C 57 % 1018,7 hPa 0,0 l/m 2 min 0 min 906 W/m 16,1 km/h (3 Bft) 97,87 %
04.05.2022 13:30 17,2 C 20,0 C 15,0 C 54 % 1018,7 hPa 0,0 l/m 2 min 0 min 907 W/m 9,7 km/h (2 Bft) 97,83 %
04.05.2022 13:32 17,2 C 20,6 C 17,2 C 55 % 1018,6 hPa 0,0 l/m 2 min 0 min 906 W/m 19,3 km/h (3 Bft) 95,74 %
04.05.2022 13:34 17,3 C 20,0 C 18,3 C 55 % 1018,6 hPa 0,0 l/m 2 min 0 min 908 W/m 16,1 km/h (3 Bft) 97,87 %
04.05.2022 13:36 17,4 C 20,6 C 19,4 C 53 % 1018,5 hPa 0,0 l/m 2 min 0 min 909 W/m 12,9 km/h (3 Bft) 97,87 %
04.05.2022 13:38 17,6 C 21,1 C 20,0 C 54 % 1018,6 hPa 0,0 l/m 2 min 0 min 908 W/m 9,7 km/h (2 Bft) 97,87 %
04.05.2022 13:40 17,6 C 21,1 C 21,1 C 52 % 1018,6 hPa 0,0 l/m 2 min 0 min 906 W/m 9,7 km/h (2 Bft) 95,74 %
04.05.2022 13:42 17,6 C 21,1 C 21,1 C 53 % 1018,5 hPa 0,0 l/m 2 min 0 min 906 W/m 6,4 km/h (2 Bft) 97,83 %
04.05.2022 13:44 17,6 C 20,6 C 20,0 C 53 % 1018,5 hPa 0,0 l/m 2 min 0 min 905 W/m 12,9 km/h (3 Bft) 97,87 %
04.05.2022 13:46 17,6 C 21,1 C 19,4 C 54 % 1018,5 hPa 0,0 l/m 2 min 0 min 902 W/m 9,7 km/h (2 Bft) 95,74 %
04.05.2022 13:48 17,7 C 21,1 C 17,8 C 55 % 1018,5 hPa 0,0 l/m 2 min 0 min 897 W/m 9,7 km/h (2 Bft) 97,87 %
04.05.2022 13:50 17,8 C 21,7 C 17,8 C 55 % 1018,5 hPa 0,0 l/m 2 min 0 min 898 W/m 9,7 km/h (2 Bft) 97,87 %
04.05.2022 13:52 17,8 C 21,7 C 16,7 C 55 % 1018,5 hPa 0,0 l/m 2 min 0 min 879 W/m 6,4 km/h (2 Bft) 100,00 %
04.05.2022 13:54 17,8 C 22,2 C 16,1 C 56 % 1018,4 hPa 0,0 l/m 2 min 0 min 885 W/m 9,7 km/h (2 Bft) 100,00 %
04.05.2022 13:56 17,8 C 21,7 C 15,6 C 55 % 1018,4 hPa 0,0 l/m 2 min 0 min 902 W/m 12,9 km/h (3 Bft) 97,87 %
04.05.2022 13:58 17,9 C 21,1 C 15,0 C 56 % 1018,4 hPa 0,0 l/m 2 min 0 min 896 W/m 12,9 km/h (3 Bft) 100,00 %
04.05.2022 14:00 17,9 C 21,1 C 15,0 C 57 % 1018,3 hPa 0,0 l/m 2 min 0 min 880 W/m 12,9 km/h (3 Bft) 100,00 %
04.05.2022 14:02 17,9 C 21,7 C 15,0 C 56 % 1018,3 hPa 0,0 l/m 2 min 0 min 879 W/m 9,7 km/h (2 Bft) 97,87 %
04.05.2022 14:04 18,1 C 21,7 C 15,0 C 55 % 1018,4 hPa 0,0 l/m 2 min 0 min 888 W/m 9,7 km/h (2 Bft) 100,00 %
04.05.2022 14:06 18,1 C 21,7 C 14,4 C 54 % 1018,3 hPa 0,0 l/m 2 min 0 min 891 W/m 9,7 km/h (2 Bft) 97,83 %
04.05.2022 14:08 18,2 C 21,7 C 15,0 C 55 % 1018,3 hPa 0,0 l/m 2 min 0 min 898 W/m 9,7 km/h (2 Bft) 100,00 %
04.05.2022 14:10 18,2 C 22,2 C 15,0 C 55 % 1018,3 hPa 0,0 l/m 2 min 0 min 892 W/m 6,4 km/h (2 Bft) 97,87 %
04.05.2022 14:12 18,2 C 21,7 C 14,4 C 54 % 1018,3 hPa 0,0 l/m 2 min 0 min 889 W/m 12,9 km/h (3 Bft) 100,00 %
04.05.2022 14:14 18,2 C 21,1 C 14,4 C 53 % 1018,3 hPa 0,0 l/m 2 min 0 min 889 W/m 9,7 km/h (2 Bft) 97,87 %
04.05.2022 14:16 18,3 C 21,7 C 14,4 C 52 % 1018,3 hPa 0,0 l/m 2 min 0 min 889 W/m 16,1 km/h (3 Bft) 93,62 %
04.05.2022 14:18 18,3 C 22,2 C 14,4 C 51 % 1018,3 hPa 0,0 l/m 2 min 0 min 890 W/m 12,9 km/h (3 Bft) 97,83 %
04.05.2022 14:20 18,4 C 22,2 C 14,4 C 50 % 1018,3 hPa 0,0 l/m 2 min 0 min 897 W/m 12,9 km/h (3 Bft) 97,87 %
04.05.2022 14:22 18,4 C 21,7 C 14,4 C 49 % 1018,3 hPa 0,0 l/m 2 min 0 min 893 W/m 12,9 km/h (3 Bft) 97,87 %
04.05.2022 14:24 18,4 C 21,7 C 13,9 C 49 % 1018,4 hPa 0,0 l/m 2 min 0 min 888 W/m 16,1 km/h (3 Bft) 97,87 %
04.05.2022 14:26 18,3 C 22,2 C 14,4 C 50 % 1018,3 hPa 0,0 l/m 2 min 0 min 896 W/m 9,7 km/h (2 Bft) 97,87 %
04.05.2022 14:28 18,4 C 21,7 C 14,4 C 50 % 1018,3 hPa 0,0 l/m 2 min 0 min 892 W/m 19,3 km/h (3 Bft) 97,87 %
04.05.2022 14:30 18,3 C 21,1 C 14,4 C 51 % 1018,3 hPa 0,0 l/m 2 min 0 min 882 W/m 16,1 km/h (3 Bft) 97,87 %
04.05.2022 14:32 18,4 C 22,2 C 14,4 C 53 % 1018,3 hPa 0,0 l/m 2 min 0 min 879 W/m 9,7 km/h (2 Bft) 97,83 %
04.05.2022 14:34 18,4 C 22,2 C 14,4 C 52 % 1018,2 hPa 0,0 l/m 2 min 0 min 872 W/m 9,7 km/h (2 Bft) 97,87 %
04.05.2022 14:36 18,4 C 21,7 C 14,4 C 52 % 1018,2 hPa 0,0 l/m 2 min 0 min 875 W/m 12,9 km/h (3 Bft) 97,87 %
04.05.2022 14:38 18,4 C 22,2 C 14,4 C 53 % 1018,3 hPa 0,0 l/m 2 min 0 min 875 W/m 12,9 km/h (3 Bft) 97,87 %
04.05.2022 14:40 18,6 C 22,2 C 14,4 C 52 % 1018,2 hPa 0,0 l/m 2 min 0 min 878 W/m 9,7 km/h (2 Bft) 95,74 %
04.05.2022 14:42 18,7 C 22,2 C 14,4 C 51 % 1018,3 hPa 0,0 l/m 2 min 0 min 875 W/m 19,3 km/h (3 Bft) 97,83 %
04.05.2022 14:44 18,7 C 22,2 C 14,4 C 51 % 1018,2 hPa 0,0 l/m 2 min 0 min 869 W/m 16,1 km/h (3 Bft) 97,87 %
04.05.2022 14:46 18,8 C 22,2 C 14,4 C 50 % 1018,3 hPa 0,0 l/m 2 min 0 min 867 W/m 16,1 km/h (3 Bft) 97,87 %
04.05.2022 14:48 18,7 C 22,2 C 14,4 C 49 % 1018,2 hPa 0,0 l/m 2 min 0 min 870 W/m 6,4 km/h (2 Bft) 95,74 %
04.05.2022 14:50 18,6 C 21,7 C 13,9 C 49 % 1018,2 hPa 0,0 l/m 2 min 0 min 867 W/m 9,7 km/h (2 Bft) 97,87 %
04.05.2022 14:52 18,7 C 22,2 C 14,4 C 50 % 1018,2 hPa 0,0 l/m 2 min 0 min 862 W/m 9,7 km/h (2 Bft) 97,87 %
04.05.2022 14:54 18,7 C 22,8 C 14,4 C 50 % 1018,2 hPa 0,0 l/m 2 min 0 min 861 W/m 19,3 km/h (3 Bft) 97,83 %
04.05.2022 14:56 18,8 C 22,2 C 14,4 C 49 % 1018,2 hPa 0,0 l/m 2 min 0 min 859 W/m 6,4 km/h (2 Bft) 97,87 %
04.05.2022 14:58 18,8 C 22,8 C 13,9 C 47 % 1018,2 hPa 0,0 l/m 2 min 0 min 861 W/m 12,9 km/h (3 Bft) 97,87 %
04.05.2022 15:00 18,9 C 22,8 C 14,4 C 48 % 1018,1 hPa 0,0 l/m 2 min 0 min 860 W/m 9,7 km/h (2 Bft) 97,87 %
04.05.2022 15:02 18,9 C 22,8 C 14,4 C 47 % 1018,1 hPa 0,0 l/m 2 min 0 min 859 W/m 6,4 km/h (2 Bft) 97,87 %
04.05.2022 15:04 19,0 C 22,8 C 14,4 C 46 % 1018,1 hPa 0,0 l/m 2 min 0 min 852 W/m 12,9 km/h (3 Bft) 97,62 %
04.05.2022 15:06 19,0 C 23,3 C 14,4 C 46 % 1018,0 hPa 0,0 l/m 2 min 0 min 846 W/m 9,7 km/h (2 Bft) 98,00 %
04.05.2022 15:08 19,0 C 23,3 C 14,4 C 47 % 1018,0 hPa 0,0 l/m 2 min 0 min 837 W/m 9,7 km/h (2 Bft) 97,87 %
04.05.2022 15:10 18,9 C 23,3 C 14,4 C 48 % 1018,0 hPa 0,0 l/m 2 min 0 min 836 W/m 9,7 km/h (2 Bft) 97,87 %
04.05.2022 15:12 19,0 C 22,8 C 14,4 C 49 % 1018,0 hPa 0,0 l/m 2 min 0 min 844 W/m 9,7 km/h (2 Bft) 95,65 %
04.05.2022 15:14 19,1 C 22,2 C 14,4 C 50 % 1018,0 hPa 0,0 l/m 2 min 0 min 837 W/m 12,9 km/h (3 Bft) 95,74 %
04.05.2022 15:16 19,0 C 22,2 C 14,4 C 51 % 1018,0 hPa 0,0 l/m 2 min 0 min 830 W/m 12,9 km/h (3 Bft) 95,74 %
04.05.2022 15:18 19,1 C 22,2 C 14,4 C 50 % 1018,0 hPa 0,0 l/m 2 min 0 min 828 W/m 12,9 km/h (3 Bft) 95,74 %
04.05.2022 15:20 19,1 C 22,2 C 14,4 C 51 % 1018,0 hPa 0,0 l/m 2 min 0 min 826 W/m 12,9 km/h (3 Bft) 95,74 %
04.05.2022 15:22 19,0 C 21,7 C 14,4 C 51 % 1017,9 hPa 0,0 l/m 2 min 0 min 833 W/m 16,1 km/h (3 Bft) 93,62 %
04.05.2022 15:24 19,0 C 21,7 C 14,4 C 51 % 1018,0 hPa 0,0 l/m 2 min 0 min 824 W/m 16,1 km/h (3 Bft) 95,65 %
04.05.2022 15:26 18,9 C 21,7 C 14,4 C 51 % 1018,0 hPa 0,0 l/m 2 min 0 min 823 W/m 6,4 km/h (2 Bft) 95,92 %
04.05.2022 15:28 19,1 C 22,2 C 14,4 C 51 % 1017,9 hPa 0,0 l/m 2 min 0 min 819 W/m 12,9 km/h (3 Bft) 93,62 %
04.05.2022 15:30 19,1 C 22,2 C 14,4 C 50 % 1017,9 hPa 0,0 l/m 2 min 0 min 812 W/m 12,9 km/h (3 Bft) 95,65 %
04.05.2022 15:32 19,1 C 22,8 C 14,4 C 51 % 1017,9 hPa 0,0 l/m 2 min 0 min 806 W/m 12,9 km/h (3 Bft) 93,62 %
04.05.2022 15:34 19,1 C 22,2 C 14,4 C 51 % 1017,8 hPa 0,0 l/m 2 min 0 min 803 W/m 16,1 km/h (3 Bft) 97,87 %
04.05.2022 15:36 19,1 C 22,2 C 14,4 C 52 % 1017,8 hPa 0,0 l/m 2 min 0 min 795 W/m 12,9 km/h (3 Bft) 95,74 %
04.05.2022 15:38 19,2 C 22,8 C 14,4 C 52 % 1017,8 hPa 0,0 l/m 2 min 0 min 795 W/m 6,4 km/h (2 Bft) 95,74 %
04.05.2022 15:40 19,3 C 23,3 C 15,0 C 53 % 1017,8 hPa 0,0 l/m 2 min 0 min 793 W/m 12,9 km/h (3 Bft) 95,74 %
04.05.2022 15:42 19,4 C 23,9 C 15,0 C 51 % 1017,8 hPa 0,0 l/m 2 min 0 min 790 W/m 9,7 km/h (2 Bft) 93,48 %
04.05.2022 15:44 19,4 C 23,3 C 15,0 C 50 % 1017,8 hPa 0,0 l/m 2 min 0 min 783 W/m 16,1 km/h (3 Bft) 95,74 %
04.05.2022 15:46 19,4 C 22,8 C 15,0 C 50 % 1017,8 hPa 0,0 l/m 2 min 0 min 776 W/m 9,7 km/h (2 Bft) 95,74 %
04.05.2022 15:48 19,4 C 22,8 C 14,4 C 49 % 1017,9 hPa 0,0 l/m 2 min 0 min 774 W/m 16,1 km/h (3 Bft) 95,74 %
04.05.2022 15:50 19,3 C 22,2 C 14,4 C 49 % 1017,9 hPa 0,0 l/m 2 min 0 min 775 W/m 12,9 km/h (3 Bft) 93,62 %
04.05.2022 15:52 19,2 C 22,8 C 14,4 C 48 % 1017,8 hPa 0,0 l/m 2 min 0 min 772 W/m 12,9 km/h (3 Bft) 95,74 %
04.05.2022 15:54 19,1 C 22,8 C 14,4 C 48 % 1017,8 hPa 0,0 l/m 2 min 0 min 766 W/m 16,1 km/h (3 Bft) 97,83 %
04.05.2022 15:56 19,1 C 22,8 C 14,4 C 48 % 1017,8 hPa 0,0 l/m 2 min 0 min 765 W/m 22,5 km/h (4 Bft) 95,74 %
04.05.2022 15:58 19,1 C 22,8 C 14,4 C 48 % 1017,8 hPa 0,0 l/m 2 min 0 min 759 W/m 19,3 km/h (3 Bft) 97,87 %
04.05.2022 16:00 19,1 C 22,8 C 14,4 C 47 % 1017,7 hPa 0,0 l/m 2 min 0 min 740 W/m 16,1 km/h (3 Bft) 97,87 %
04.05.2022 16:02 19,1 C 23,3 C 14,4 C 47 % 1017,7 hPa 0,0 l/m 2 min 0 min 738 W/m 9,7 km/h (2 Bft) 100,00 %
04.05.2022 16:04 19,1 C 23,3 C 14,4 C 47 % 1017,7 hPa 0,0 l/m 2 min 0 min 738 W/m 12,9 km/h (3 Bft) 95,83 %
04.05.2022 16:06 18,9 C 23,3 C 14,4 C 48 % 1017,6 hPa 0,0 l/m 2 min 0 min 742 W/m 9,7 km/h (2 Bft) 100,00 %
04.05.2022 16:08 19,0 C 24,4 C 14,4 C 48 % 1017,6 hPa 0,0 l/m 2 min 0 min 740 W/m 9,7 km/h (2 Bft) 100,00 %
04.05.2022 16:10 19,1 C 24,4 C 14,4 C 50 % 1017,6 hPa 0,0 l/m 2 min 0 min 736 W/m 16,1 km/h (3 Bft) 100,00 %
04.05.2022 16:12 19,1 C 24,4 C 14,4 C 50 % 1017,6 hPa 0,0 l/m 2 min 0 min 728 W/m 12,9 km/h (3 Bft) 97,87 %
04.05.2022 16:14 19,1 C 24,4 C 14,4 C 51 % 1017,6 hPa 0,0 l/m 2 min 0 min 717 W/m 9,7 km/h (2 Bft) 100,00 %
04.05.2022 16:16 19,1 C 23,9 C 14,4 C 50 % 1017,6 hPa 0,0 l/m 2 min 0 min 718 W/m 12,9 km/h (3 Bft) 100,00 %
04.05.2022 16:18 19,1 C 23,3 C 14,4 C 50 % 1017,7 hPa 0,0 l/m 2 min 0 min 713 W/m 9,7 km/h (2 Bft) 100,00 %
04.05.2022 16:20 19,2 C 23,9 C 14,4 C 50 % 1017,6 hPa 0,0 l/m 2 min 0 min 704 W/m 12,9 km/h (3 Bft) 100,00 %
04.05.2022 16:22 19,2 C 23,9 C 15,0 C 50 % 1017,6 hPa 0,0 l/m 2 min 0 min 707 W/m 19,3 km/h (3 Bft) 100,00 %
04.05.2022 16:24 19,2 C 23,9 C 15,0 C 50 % 1017,7 hPa 0,0 l/m 2 min 0 min 700 W/m 19,3 km/h (3 Bft) 100,00 %
04.05.2022 16:26 19,2 C 24,4 C 15,0 C 50 % 1017,7 hPa 0,0 l/m 2 min 0 min 696 W/m 16,1 km/h (3 Bft) 100,00 %
04.05.2022 16:28 19,2 C 24,4 C 15,0 C 50 % 1017,6 hPa 0,0 l/m 2 min 0 min 690 W/m 12,9 km/h (3 Bft) 100,00 %
04.05.2022 16:30 19,1 C 23,9 C 15,0 C 50 % 1017,6 hPa 0,0 l/m 2 min 0 min 688 W/m 16,1 km/h (3 Bft) 100,00 %
04.05.2022 16:32 19,1 C 24,4 C 15,0 C 51 % 1017,6 hPa 0,0 l/m 2 min 0 min 683 W/m 6,4 km/h (2 Bft) 100,00 %
04.05.2022 16:34 19,1 C 25,0 C 15,0 C 50 % 1017,6 hPa 0,0 l/m 2 min 0 min 680 W/m 9,7 km/h (2 Bft) 100,00 %
04.05.2022 16:36 19,2 C 25,0 C 15,0 C 50 % 1017,6 hPa 0,0 l/m 2 min 0 min 674 W/m 12,9 km/h (3 Bft) 100,00 %
04.05.2022 16:38 19,2 C 25,6 C 15,0 C 51 % 1017,6 hPa 0,0 l/m 2 min 0 min 668 W/m 6,4 km/h (2 Bft) 100,00 %
04.05.2022 16:40 19,3 C 26,1 C 15,6 C 50 % 1017,6 hPa 0,0 l/m 2 min 0 min 665 W/m 9,7 km/h (2 Bft) 100,00 %
04.05.2022 16:42 19,3 C 25,6 C 15,6 C 50 % 1017,5 hPa 0,0 l/m 2 min 0 min 661 W/m 16,1 km/h (3 Bft) 100,00 %
04.05.2022 16:44 19,6 C 26,7 C 16,1 C 51 % 1017,5 hPa 0,0 l/m 2 min 0 min 658 W/m 16,1 km/h (3 Bft) 100,00 %
04.05.2022 16:46 19,7 C 26,1 C 16,1 C 49 % 1017,6 hPa 0,0 l/m 2 min 0 min 651 W/m 25,7 km/h (4 Bft) 100,00 %
04.05.2022 16:48 19,7 C 25,6 C 16,1 C 49 % 1017,6 hPa 0,0 l/m 2 min 0 min 644 W/m 19,3 km/h (3 Bft) 100,00 %
04.05.2022 16:50 19,8 C 25,0 C 15,6 C 49 % 1017,5 hPa 0,0 l/m 2 min 0 min 640 W/m 16,1 km/h (3 Bft) 100,00 %
04.05.2022 16:52 19,8 C 25,6 C 15,6 C 49 % 1017,5 hPa 0,0 l/m 2 min 0 min 635 W/m 9,7 km/h (2 Bft) 100,00 %
04.05.2022 16:54 19,9 C 25,6 C 15,6 C 49 % 1017,5 hPa 0,0 l/m 2 min 0 min 627 W/m 12,9 km/h (3 Bft) 100,00 %
04.05.2022 16:56 19,9 C 25,6 C 15,6 C 48 % 1017,5 hPa 0,0 l/m 2 min 0 min 624 W/m 9,7 km/h (2 Bft) 100,00 %
04.05.2022 16:58 20,0 C 26,1 C 15,6 C 49 % 1017,5 hPa 0,0 l/m 2 min 0 min 618 W/m 6,4 km/h (2 Bft) 100,00 %
04.05.2022 17:00 20,1 C 26,7 C 16,1 C 49 % 1017,5 hPa 0,0 l/m 2 min 0 min 614 W/m 12,9 km/h (3 Bft) 100,00 %
04.05.2022 17:02 20,1 C 25,0 C 15,6 C 47 % 1017,4 hPa 0,0 l/m 2 min 0 min 607 W/m 16,1 km/h (3 Bft) 97,87 %
04.05.2022 17:04 20,2 C 25,6 C 16,1 C 48 % 1017,4 hPa 0,0 l/m 2 min 0 min 596 W/m 12,9 km/h (3 Bft) 100,00 %
04.05.2022 17:06 20,1 C 25,6 C 16,1 C 47 % 1017,4 hPa 0,0 l/m 2 min 0 min 587 W/m 12,9 km/h (3 Bft) 100,00 %
04.05.2022 17:08 20,2 C 26,1 C 16,1 C 46 % 1017,4 hPa 0,0 l/m 2 min 0 min 590 W/m 12,9 km/h (3 Bft) 100,00 %
04.05.2022 17:10 20,2 C 26,1 C 16,1 C 47 % 1017,4 hPa 0,0 l/m 2 min 0 min 584 W/m 6,4 km/h (2 Bft) 100,00 %
04.05.2022 17:12 20,3 C 26,7 C 16,1 C 47 % 1017,4 hPa 0,0 l/m 2 min 0 min 570 W/m 16,1 km/h (3 Bft) 100,00 %
04.05.2022 17:14 20,3 C 26,7 C 16,1 C 47 % 1017,4 hPa 0,0 l/m 2 min 0 min 568 W/m 16,1 km/h (3 Bft) 97,87 %
04.05.2022 17:16 20,2 C 26,7 C 16,1 C 47 % 1017,5 hPa 0,0 l/m 2 min 0 min 566 W/m 16,1 km/h (3 Bft) 100,00 %
04.05.2022 17:18 20,1 C 26,1 C 16,1 C 46 % 1017,4 hPa 0,0 l/m 2 min 0 min 565 W/m 12,9 km/h (3 Bft) 100,00 %
04.05.2022 17:20 20,1 C 26,1 C 16,1 C 47 % 1017,4 hPa 0,0 l/m 2 min 0 min 558 W/m 12,9 km/h (3 Bft) 100,00 %
04.05.2022 17:22 20,0 C 26,1 C 16,1 C 47 % 1017,5 hPa 0,0 l/m 2 min 0 min 556 W/m 12,9 km/h (3 Bft) 100,00 %
04.05.2022 17:24 20,1 C 26,7 C 16,7 C 47 % 1017,4 hPa 0,0 l/m 2 min 0 min 548 W/m 9,7 km/h (2 Bft) 97,87 %
04.05.2022 17:26 20,1 C 26,1 C 16,7 C 46 % 1017,4 hPa 0,0 l/m 2 min 0 min 538 W/m 16,1 km/h (3 Bft) 100,00 %
04.05.2022 17:28 20,2 C 26,1 C 16,7 C 45 % 1017,5 hPa 0,0 l/m 2 min 0 min 530 W/m 16,1 km/h (3 Bft) 100,00 %
04.05.2022 17:30 20,2 C 25,6 C 16,1 C 45 % 1017,4 hPa 0,0 l/m 2 min 0 min 527 W/m 9,7 km/h (2 Bft) 100,00 %
04.05.2022 17:32 20,2 C 25,6 C 16,7 C 46 % 1017,4 hPa 0,0 l/m 2 min 0 min 527 W/m 16,1 km/h (3 Bft) 100,00 %
04.05.2022 17:34 20,3 C 26,1 C 16,1 C 45 % 1017,4 hPa 0,0 l/m 2 min 0 min 520 W/m 9,7 km/h (2 Bft) 97,87 %
04.05.2022 17:36 20,3 C 26,1 C 16,7 C 46 % 1017,4 hPa 0,0 l/m 2 min 0 min 517 W/m 16,1 km/h (3 Bft) 100,00 %
04.05.2022 17:38 20,3 C 25,6 C 16,1 C 45 % 1017,4 hPa 0,0 l/m 2 min 0 min 507 W/m 12,9 km/h (3 Bft) 95,74 %
04.05.2022 17:40 20,2 C 25,6 C 16,1 C 45 % 1017,4 hPa 0,0 l/m 2 min 0 min 506 W/m 16,1 km/h (3 Bft) 97,87 %
04.05.2022 17:42 20,2 C 26,1 C 16,7 C 47 % 1017,4 hPa 0,0 l/m 2 min 0 min 497 W/m 12,9 km/h (3 Bft) 97,83 %
04.05.2022 17:44 20,3 C 26,1 C 16,1 C 45 % 1017,4 hPa 0,0 l/m 2 min 0 min 496 W/m 6,4 km/h (2 Bft) 95,74 %
04.05.2022 17:46 20,3 C 26,7 C 16,7 C 46 % 1017,4 hPa 0,0 l/m 2 min 0 min 493 W/m 12,9 km/h (3 Bft) 97,87 %
04.05.2022 17:48 20,4 C 26,1 C 16,1 C 46 % 1017,4 hPa 0,0 l/m 2 min 0 min 490 W/m 16,1 km/h (3 Bft) 93,62 %
04.05.2022 17:50 20,4 C 26,1 C 16,1 C 46 % 1017,4 hPa 0,0 l/m 2 min 0 min 481 W/m 6,4 km/h (2 Bft) 97,87 %
04.05.2022 17:52 20,3 C 26,1 C 16,1 C 45 % 1017,3 hPa 0,0 l/m 2 min 0 min 471 W/m 6,4 km/h (2 Bft) 95,74 %
04.05.2022 17:54 20,3 C 25,6 C 16,1 C 46 % 1017,3 hPa 0,0 l/m 2 min 0 min 466 W/m 9,7 km/h (2 Bft) 93,48 %
04.05.2022 17:56 20,3 C 25,0 C 16,1 C 46 % 1017,3 hPa 0,0 l/m 2 min 0 min 459 W/m 16,1 km/h (3 Bft) 93,62 %
04.05.2022 17:58 20,3 C 25,6 C 16,1 C 46 % 1017,3 hPa 0,0 l/m 2 min 0 min 451 W/m 16,1 km/h (3 Bft) 91,49 %
04.05.2022 18:00 20,3 C 25,0 C 16,1 C 46 % 1017,3 hPa 0,0 l/m 2 min 0 min 443 W/m 9,7 km/h (2 Bft) 93,62 %
04.05.2022 18:02 20,3 C 25,0 C 16,1 C 45 % 1017,3 hPa 0,0 l/m 2 min 0 min 436 W/m 16,1 km/h (3 Bft) 93,62 %
04.05.2022 18:04 20,3 C 26,1 C 16,7 C 46 % 1017,3 hPa 0,0 l/m 2 min 0 min 431 W/m 9,7 km/h (2 Bft) 93,62 %
04.05.2022 18:07 20,3 C 26,1 C 16,1 C 46 % 1017,2 hPa 0,0 l/m 3 min 0 min 427 W/m 9,7 km/h (2 Bft) 91,43 %
04.05.2022 18:08 20,4 C 25,6 C 16,1 C 46 % 1017,2 hPa 0,0 l/m 1 min 0 min 416 W/m 12,9 km/h (3 Bft) 91,30 %
04.05.2022 18:10 20,4 C 25,6 C 16,7 C 46 % 1017,3 hPa 0,0 l/m 2 min 0 min 409 W/m 19,3 km/h (3 Bft) 93,62 %
04.05.2022 18:12 20,3 C 26,1 C 16,7 C 45 % 1017,3 hPa 0,0 l/m 2 min 0 min 402 W/m 16,1 km/h (3 Bft) 93,62 %
04.05.2022 18:14 20,2 C 26,1 C 16,7 C 45 % 1017,3 hPa 0,0 l/m 2 min 0 min 392 W/m 16,1 km/h (3 Bft) 93,62 %
04.05.2022 18:16 20,1 C 26,1 C 16,7 C 47 % 1017,2 hPa 0,0 l/m 2 min 0 min 387 W/m 6,4 km/h (2 Bft) 95,65 %
04.05.2022 18:18 20,1 C 26,1 C 16,1 C 46 % 1017,2 hPa 0,0 l/m 2 min 0 min 384 W/m 9,7 km/h (2 Bft) 95,74 %
04.05.2022 18:20 20,1 C 25,6 C 16,1 C 46 % 1017,2 hPa 0,0 l/m 2 min 0 min 386 W/m 16,1 km/h (3 Bft) 93,62 %
04.05.2022 18:22 20,1 C 25,6 C 16,1 C 47 % 1017,2 hPa 0,0 l/m 2 min 0 min 381 W/m 16,1 km/h (3 Bft) 97,87 %
04.05.2022 18:24 20,1 C 25,6 C 16,1 C 47 % 1017,2 hPa 0,0 l/m 2 min 0 min 375 W/m 12,9 km/h (3 Bft) 95,74 %
04.05.2022 18:26 20,1 C 25,0 C 16,1 C 46 % 1017,2 hPa 0,0 l/m 2 min 0 min 367 W/m 19,3 km/h (3 Bft) 93,62 %
04.05.2022 18:28 20,0 C 25,0 C 16,1 C 46 % 1017,3 hPa 0,0 l/m 2 min 0 min 360 W/m 12,9 km/h (3 Bft) 93,48 %
04.05.2022 18:30 19,9 C 25,6 C 16,1 C 46 % 1017,3 hPa 0,0 l/m 2 min 0 min 355 W/m 12,9 km/h (3 Bft) 95,74 %
04.05.2022 18:32 19,9 C 25,6 C 15,6 C 46 % 1017,3 hPa 0,0 l/m 2 min 0 min 343 W/m 12,9 km/h (3 Bft) 95,74 %
04.05.2022 18:34 19,9 C 25,0 C 15,6 C 46 % 1017,3 hPa 0,0 l/m 2 min 0 min 332 W/m 12,9 km/h (3 Bft) 95,74 %
04.05.2022 18:36 19,8 C 23,9 C 15,0 C 45 % 1017,3 hPa 0,0 l/m 2 min 0 min 328 W/m 25,7 km/h (4 Bft) 95,74 %
04.05.2022 18:38 19,6 C 23,9 C 15,0 C 45 % 1017,4 hPa 0,0 l/m 2 min 0 min 324 W/m 19,3 km/h (3 Bft) 97,87 %
04.05.2022 18:40 19,6 C 23,9 C 15,0 C 45 % 1017,3 hPa 0,0 l/m 2 min 0 min 320 W/m 16,1 km/h (3 Bft) 97,87 %
04.05.2022 18:42 19,4 C 24,4 C 14,4 C 46 % 1017,4 hPa 0,0 l/m 2 min 0 min 320 W/m 6,4 km/h (2 Bft) 97,83 %
04.05.2022 18:44 19,4 C 24,4 C 14,4 C 46 % 1017,4 hPa 0,0 l/m 2 min 0 min 316 W/m 16,1 km/h (3 Bft) 95,74 %
04.05.2022 18:46 19,4 C 23,3 C 14,4 C 45 % 1017,3 hPa 0,0 l/m 2 min 0 min 289 W/m 12,9 km/h (3 Bft) 97,87 %
04.05.2022 18:48 19,4 C 23,9 C 14,4 C 46 % 1017,3 hPa 0,0 l/m 2 min 0 min 286 W/m 9,7 km/h (2 Bft) 100,00 %
04.05.2022 18:50 19,3 C 23,3 C 14,4 C 47 % 1017,3 hPa 0,0 l/m 2 min 0 min 282 W/m 12,9 km/h (3 Bft) 100,00 %
04.05.2022 18:52 19,3 C 22,8 C 14,4 C 47 % 1017,3 hPa 0,0 l/m 2 min 0 min 274 W/m 16,1 km/h (3 Bft) 97,83 %
04.05.2022 18:54 19,2 C 21,1 C 13,9 C 47 % 1017,3 hPa 0,0 l/m 2 min 0 min 267 W/m 12,9 km/h (3 Bft) 100,00 %
04.05.2022 18:56 19,2 C 20,0 C 13,9 C 47 % 1017,3 hPa 0,0 l/m 2 min 0 min 263 W/m 16,1 km/h (3 Bft) 100,00 %
04.05.2022 18:58 19,0 C 18,9 C 13,9 C 46 % 1017,3 hPa 0,0 l/m 2 min 0 min 259 W/m 32,2 km/h (5 Bft) 100,00 %
04.05.2022 19:00 18,9 C 18,9 C 13,9 C 47 % 1017,4 hPa 0,0 l/m 2 min 0 min 241 W/m 9,7 km/h (2 Bft) 100,00 %
04.05.2022 19:02 18,9 C 18,9 C 13,9 C 47 % 1017,4 hPa 0,0 l/m 2 min 0 min 240 W/m 12,9 km/h (3 Bft) 100,00 %
04.05.2022 19:04 18,8 C 18,3 C 13,9 C 47 % 1017,4 hPa 0,0 l/m 2 min 0 min 236 W/m 16,1 km/h (3 Bft) 97,83 %
04.05.2022 19:06 18,7 C 18,3 C 13,9 C 47 % 1017,4 hPa 0,0 l/m 2 min 0 min 230 W/m 16,1 km/h (3 Bft) 100,00 %
04.05.2022 19:08 18,7 C 18,3 C 13,9 C 48 % 1017,4 hPa 0,0 l/m 2 min 0 min 218 W/m 9,7 km/h (2 Bft) 100,00 %
04.05.2022 19:10 18,6 C 17,8 C 13,9 C 49 % 1017,4 hPa 0,0 l/m 2 min 0 min 201 W/m 16,1 km/h (3 Bft) 97,87 %
04.05.2022 19:12 18,6 C 17,8 C 13,9 C 48 % 1017,4 hPa 0,0 l/m 0 min 0 min 128 W/m 9,7 km/h (2 Bft) 100,00 %
04.05.2022 19:14 18,6 C 17,8 C 13,9 C 49 % 1017,4 hPa 0,0 l/m 0 min 0 min 75 W/m 12,9 km/h (3 Bft) 100,00 %
04.05.2022 19:16 18,4 C 17,8 C 13,9 C 49 % 1017,4 hPa 0,0 l/m 0 min 0 min 69 W/m 9,7 km/h (2 Bft) 100,00 %
04.05.2022 19:18 18,4 C 17,8 C 13,3 C 49 % 1017,5 hPa 0,0 l/m 0 min 0 min 68 W/m 6,4 km/h (2 Bft) 100,00 %
04.05.2022 19:20 18,3 C 17,8 C 13,3 C 49 % 1017,5 hPa 0,0 l/m 0 min 0 min 66 W/m 19,3 km/h (3 Bft) 100,00 %
04.05.2022 19:22 18,1 C 17,8 C 13,3 C 49 % 1017,5 hPa 0,0 l/m 0 min 0 min 64 W/m 16,1 km/h (3 Bft) 100,00 %
04.05.2022 19:24 18,1 C 17,2 C 13,3 C 49 % 1017,5 hPa 0,0 l/m 0 min 0 min 62 W/m 16,1 km/h (3 Bft) 100,00 %
04.05.2022 19:26 18,0 C 17,2 C 13,3 C 49 % 1017,5 hPa 0,0 l/m 0 min 0 min 60 W/m 9,7 km/h (2 Bft) 100,00 %
04.05.2022 19:28 17,9 C 17,2 C 13,3 C 49 % 1017,5 hPa 0,0 l/m 0 min 0 min 58 W/m 16,1 km/h (3 Bft) 100,00 %
04.05.2022 19:30 17,9 C 17,2 C 13,3 C 50 % 1017,5 hPa 0,0 l/m 0 min 0 min 58 W/m 19,3 km/h (3 Bft) 100,00 %
04.05.2022 19:32 17,8 C 17,2 C 13,3 C 50 % 1017,5 hPa 0,0 l/m 0 min 0 min 56 W/m 12,9 km/h (3 Bft) 100,00 %
04.05.2022 19:34 17,8 C 16,7 C 12,8 C 50 % 1017,5 hPa 0,0 l/m 0 min 0 min 50 W/m 12,9 km/h (3 Bft) 97,87 %
04.05.2022 19:36 17,7 C 16,7 C 12,8 C 50 % 1017,4 hPa 0,0 l/m 0 min 0 min 42 W/m 12,9 km/h (3 Bft) 97,87 %
04.05.2022 19:38 17,6 C 16,7 C 12,8 C 50 % 1017,4 hPa 0,0 l/m 0 min 0 min 40 W/m 6,4 km/h (2 Bft) 100,00 %
04.05.2022 19:40 17,6 C 16,7 C 12,8 C 50 % 1017,4 hPa 0,0 l/m 0 min 0 min 37 W/m 16,1 km/h (3 Bft) 100,00 %
04.05.2022 19:42 17,6 C 16,7 C 12,8 C 51 % 1017,4 hPa 0,0 l/m 0 min 0 min 34 W/m 9,7 km/h (2 Bft) 100,00 %
04.05.2022 19:44 17,5 C 16,7 C 12,8 C 51 % 1017,5 hPa 0,0 l/m 0 min 0 min 34 W/m 9,7 km/h (2 Bft) 100,00 %
04.05.2022 19:46 17,5 C 16,7 C 12,8 C 52 % 1017,5 hPa 0,0 l/m 0 min 0 min 37 W/m 6,4 km/h (2 Bft) 97,87 %
04.05.2022 19:48 17,4 C 16,1 C 12,8 C 51 % 1017,5 hPa 0,0 l/m 0 min 0 min 40 W/m 9,7 km/h (2 Bft) 100,00 %
04.05.2022 19:50 17,3 C 16,1 C 12,8 C 51 % 1017,6 hPa 0,0 l/m 0 min 0 min 40 W/m 12,9 km/h (3 Bft) 97,87 %
04.05.2022 19:52 17,3 C 16,1 C 12,8 C 51 % 1017,5 hPa 0,0 l/m 0 min 0 min 41 W/m 6,4 km/h (2 Bft) 97,83 %
04.05.2022 19:54 17,3 C 16,1 C 12,8 C 52 % 1017,6 hPa 0,0 l/m 0 min 0 min 43 W/m 9,7 km/h (2 Bft) 97,87 %
04.05.2022 19:56 17,2 C 16,1 C 12,2 C 51 % 1017,6 hPa 0,0 l/m 0 min 0 min 46 W/m 9,7 km/h (2 Bft) 97,87 %
04.05.2022 19:58 17,2 C 16,1 C 12,2 C 52 % 1017,6 hPa 0,0 l/m 0 min 0 min 50 W/m 9,7 km/h (2 Bft) 95,74 %
04.05.2022 20:00 17,2 C 16,1 C 12,2 C 52 % 1017,6 hPa 0,0 l/m 0 min 0 min 54 W/m 12,9 km/h (3 Bft) 97,87 %
04.05.2022 20:02 17,1 C 16,1 C 12,2 C 52 % 1017,6 hPa 0,0 l/m 0 min 0 min 54 W/m 9,7 km/h (2 Bft) 97,87 %
04.05.2022 20:04 17,1 C 16,1 C 12,2 C 52 % 1017,6 hPa 0,0 l/m 0 min 0 min 53 W/m 12,9 km/h (3 Bft) 97,83 %
04.05.2022 20:06 17,1 C 16,1 C 12,2 C 52 % 1017,6 hPa 0,0 l/m 0 min 0 min 52 W/m 9,7 km/h (2 Bft) 97,87 %
04.05.2022 20:08 17,1 C 16,1 C 12,2 C 52 % 1017,6 hPa 0,0 l/m 0 min 0 min 49 W/m 6,4 km/h (2 Bft) 97,87 %
04.05.2022 20:10 17,1 C 16,1 C 12,2 C 52 % 1017,6 hPa 0,0 l/m 0 min 0 min 47 W/m 9,7 km/h (2 Bft) 97,87 %
04.05.2022 20:12 17,0 C 16,1 C 12,2 C 52 % 1017,6 hPa 0,0 l/m 0 min 0 min 46 W/m 16,1 km/h (3 Bft) 93,62 %
04.05.2022 20:14 17,0 C 16,1 C 12,2 C 52 % 1017,6 hPa 0,0 l/m 0 min 0 min 43 W/m 9,7 km/h (2 Bft) 97,87 %
04.05.2022 20:16 16,9 C 16,1 C 12,2 C 52 % 1017,6 hPa 0,0 l/m 0 min 0 min 40 W/m 9,7 km/h (2 Bft) 97,83 %
04.05.2022 20:18 16,9 C 16,1 C 12,2 C 53 % 1017,7 hPa 0,0 l/m 0 min 0 min 37 W/m 12,9 km/h (3 Bft) 97,87 %
04.05.2022 20:20 16,9 C 16,1 C 12,2 C 53 % 1017,7 hPa 0,0 l/m 0 min 0 min 34 W/m 12,9 km/h (3 Bft) 100,00 %
04.05.2022 20:22 16,9 C 16,1 C 12,2 C 53 % 1017,7 hPa 0,0 l/m 0 min 0 min 32 W/m 9,7 km/h (2 Bft) 97,87 %
04.05.2022 20:24 16,8 C 15,6 C 12,2 C 53 % 1017,8 hPa 0,0 l/m 0 min 0 min 30 W/m 3,2 km/h (1 Bft) 97,87 %
04.05.2022 20:26 16,8 C 15,6 C 12,2 C 53 % 1017,7 hPa 0,0 l/m 0 min 0 min 27 W/m 6,4 km/h (2 Bft) 100,00 %
04.05.2022 20:28 16,8 C 15,6 C 12,2 C 54 % 1017,8 hPa 0,0 l/m 0 min 0 min 25 W/m 6,4 km/h (2 Bft) 100,00 %
04.05.2022 20:30 16,8 C 15,6 C 12,2 C 53 % 1017,8 hPa 0,0 l/m 0 min 0 min 24 W/m 6,4 km/h (2 Bft) 100,00 %
04.05.2022 20:32 16,7 C 15,6 C 12,2 C 54 % 1017,8 hPa 0,0 l/m 0 min 0 min 21 W/m 6,4 km/h (2 Bft) 100,00 %
04.05.2022 20:34 16,7 C 15,6 C 12,2 C 54 % 1017,9 hPa 0,0 l/m 0 min 0 min 21 W/m 3,2 km/h (1 Bft) 95,74 %
04.05.2022 20:36 16,7 C 15,6 C 12,2 C 54 % 1017,9 hPa 0,0 l/m 0 min 0 min 18 W/m 9,7 km/h (2 Bft) 97,87 %
04.05.2022 20:38 16,6 C 15,6 C 11,7 C 54 % 1017,8 hPa 0,0 l/m 0 min 0 min 12 W/m 3,2 km/h (1 Bft) 95,65 %
04.05.2022 20:40 16,6 C 15,6 C 11,7 C 55 % 1017,9 hPa 0,0 l/m 0 min 0 min 10 W/m 3,2 km/h (1 Bft) 95,74 %
04.05.2022 20:42 16,6 C 15,6 C 11,7 C 55 % 1017,9 hPa 0,0 l/m 0 min 0 min 8 W/m 6,4 km/h (2 Bft) 95,74 %
04.05.2022 20:44 16,5 C 15,6 C 11,7 C 55 % 1017,9 hPa 0,0 l/m 0 min 0 min 7 W/m 9,7 km/h (2 Bft) 91,49 %
04.05.2022 20:46 16,5 C 15,0 C 11,7 C 55 % 1017,9 hPa 0,0 l/m 0 min 0 min 6 W/m 3,2 km/h (1 Bft) 95,74 %
04.05.2022 20:48 16,4 C 15,0 C 11,7 C 55 % 1017,9 hPa 0,0 l/m 0 min 0 min 5 W/m 3,2 km/h (1 Bft) 95,74 %
04.05.2022 20:50 16,4 C 15,0 C 11,7 C 56 % 1017,9 hPa 0,0 l/m 0 min 0 min 5 W/m 6,4 km/h (2 Bft) 95,65 %
04.05.2022 20:52 16,3 C 15,0 C 11,7 C 56 % 1017,9 hPa 0,0 l/m 0 min 0 min 4 W/m 6,4 km/h (2 Bft) 93,62 %
04.05.2022 20:54 16,3 C 15,0 C 11,7 C 56 % 1017,9 hPa 0,0 l/m 0 min 0 min 0 W/m 3,2 km/h (1 Bft) 95,74 %
04.05.2022 20:56 16,3 C 15,0 C 11,1 C 56 % 1017,9 hPa 0,0 l/m 0 min 0 min 0 W/m 0,0 km/h (0 Bft) 95,74 %
04.05.2022 20:58 16,2 C 15,0 C 11,1 C 57 % 1018,0 hPa 0,0 l/m 0 min 0 min 0 W/m 0,0 km/h (0 Bft) 95,74 %
04.05.2022 21:00 16,2 C 15,0 C 11,1 C 58 % 1017,9 hPa 0,0 l/m 0 min 0 min 0 W/m 3,2 km/h (1 Bft) 94,29 %
04.05.2022 21:02 16,2 C 15,0 C 11,1 C 57 % 1018,0 hPa 0,0 l/m 0 min 0 min 0 W/m 3,2 km/h (1 Bft) 94,74 %
04.05.2022 21:04 16,1 C 15,0 C 11,1 C 57 % 1018,0 hPa 0,0 l/m 0 min 0 min 0 W/m 6,4 km/h (2 Bft) 95,74 %
04.05.2022 21:06 16,1 C 15,0 C 11,1 C 57 % 1018,0 hPa 0,0 l/m 0 min 0 min 0 W/m 3,2 km/h (1 Bft) 95,74 %
04.05.2022 21:08 16,1 C 15,0 C 11,1 C 58 % 1018,1 hPa 0,0 l/m 0 min 0 min 0 W/m 3,2 km/h (1 Bft) 95,83 %
04.05.2022 21:10 16,1 C 15,0 C 11,1 C 58 % 1018,1 hPa 0,0 l/m 0 min 0 min 0 W/m 3,2 km/h (1 Bft) 95,74 %
04.05.2022 21:12 16,1 C 15,0 C 11,1 C 58 % 1018,0 hPa 0,0 l/m 0 min 0 min 0 W/m 0,0 km/h (0 Bft) 95,74 %
04.05.2022 21:14 16,1 C 15,0 C 11,1 C 58 % 1018,1 hPa 0,0 l/m 0 min 0 min 0 W/m 0,0 km/h (0 Bft) 93,48 %
04.05.2022 21:16 16,1 C 15,0 C 11,1 C 58 % 1018,2 hPa 0,0 l/m 0 min 0 min 0 W/m 0,0 km/h (0 Bft) 97,87 %
04.05.2022 21:18 16,0 C 14,4 C 11,1 C 59 % 1018,2 hPa 0,0 l/m 0 min 0 min 0 W/m 0,0 km/h (0 Bft) 97,87 %
04.05.2022 21:20 16,0 C 14,4 C 11,1 C 60 % 1018,2 hPa 0,0 l/m 0 min 0 min 0 W/m 0,0 km/h (0 Bft) 95,74 %
04.05.2022 21:22 16,0 C 14,4 C 11,1 C 61 % 1018,2 hPa 0,0 l/m 0 min 0 min 0 W/m 0,0 km/h (0 Bft) 97,87 %
04.05.2022 21:24 15,9 C 14,4 C 11,1 C 61 % 1018,3 hPa 0,0 l/m 0 min 0 min 0 W/m 3,2 km/h (1 Bft) 97,87 %
04.05.2022 21:26 15,9 C 14,4 C 11,1 C 59 % 1018,3 hPa 0,0 l/m 0 min 0 min 0 W/m 6,4 km/h (2 Bft) 100,00 %
04.05.2022 21:28 15,8 C 14,4 C 11,1 C 59 % 1018,3 hPa 0,0 l/m 0 min 0 min 0 W/m 6,4 km/h (2 Bft) 97,87 %
04.05.2022 21:30 15,8 C 14,4 C 11,1 C 60 % 1018,3 hPa 0,0 l/m 0 min 0 min 0 W/m 3,2 km/h (1 Bft) 100,00 %
04.05.2022 21:32 15,8 C 14,4 C 11,1 C 60 % 1018,3 hPa 0,0 l/m 0 min 0 min 0 W/m 6,4 km/h (2 Bft) 100,00 %
04.05.2022 21:34 15,7 C 14,4 C 11,1 C 59 % 1018,3 hPa 0,0 l/m 0 min 0 min 0 W/m 9,7 km/h (2 Bft) 100,00 %
04.05.2022 21:36 15,7 C 14,4 C 11,1 C 59 % 1018,4 hPa 0,0 l/m 0 min 0 min 0 W/m 3,2 km/h (1 Bft) 100,00 %
04.05.2022 21:38 15,7 C 14,4 C 11,1 C 59 % 1018,4 hPa 0,0 l/m 0 min 0 min 0 W/m 3,2 km/h (1 Bft) 97,83 %
04.05.2022 21:40 15,6 C 14,4 C 11,1 C 60 % 1018,4 hPa 0,0 l/m 0 min 0 min 0 W/m 3,2 km/h (1 Bft) 95,74 %
04.05.2022 21:42 15,6 C 14,4 C 11,1 C 60 % 1018,4 hPa 0,0 l/m 0 min 0 min 0 W/m 3,2 km/h (1 Bft) 97,87 %
04.05.2022 21:44 15,6 C 14,4 C 11,1 C 59 % 1018,4 hPa 0,0 l/m 0 min 0 min 0 W/m 0,0 km/h (0 Bft) 97,87 %
04.05.2022 21:46 15,6 C 14,4 C 11,1 C 60 % 1018,5 hPa 0,0 l/m 0 min 0 min 0 W/m 0,0 km/h (0 Bft) 97,87 %
04.05.2022 21:48 15,6 C 14,4 C 11,1 C 60 % 1018,5 hPa 0,0 l/m 0 min 0 min 0 W/m 3,2 km/h (1 Bft) 97,87 %
04.05.2022 21:50 15,6 C 14,4 C 11,1 C 60 % 1018,4 hPa 0,0 l/m 0 min 0 min 0 W/m 0,0 km/h (0 Bft) 95,65 %
04.05.2022 21:52 15,6 C 14,4 C 11,1 C 60 % 1018,6 hPa 0,0 l/m 0 min 0 min 0 W/m 3,2 km/h (1 Bft) 97,87 %
04.05.2022 21:54 15,6 C 14,4 C 11,1 C 60 % 1018,5 hPa 0,0 l/m 0 min 0 min 0 W/m 3,2 km/h (1 Bft) 97,87 %
04.05.2022 21:56 15,6 C 14,4 C 11,1 C 61 % 1018,6 hPa 0,0 l/m 0 min 0 min 0 W/m 0,0 km/h (0 Bft) 97,87 %
04.05.2022 21:58 15,5 C 14,4 C 11,1 C 61 % 1018,6 hPa 0,0 l/m 0 min 0 min 0 W/m 0,0 km/h (0 Bft) 97,87 %
04.05.2022 22:00 15,5 C 14,4 C 11,1 C 60 % 1018,6 hPa 0,0 l/m 0 min 0 min 0 W/m 0,0 km/h (0 Bft) 97,87 %
04.05.2022 22:02 15,5 C 14,4 C 10,6 C 61 % 1018,6 hPa 0,0 l/m 0 min 0 min 0 W/m 6,4 km/h (2 Bft) 97,83 %
04.05.2022 22:04 15,5 C 14,4 C 11,1 C 61 % 1018,7 hPa 0,0 l/m 0 min 0 min 0 W/m 6,4 km/h (2 Bft) 97,87 %
04.05.2022 22:06 15,5 C 14,4 C 11,1 C 60 % 1018,6 hPa 0,0 l/m 0 min 0 min 0 W/m 3,2 km/h (1 Bft) 97,87 %
04.05.2022 22:08 15,5 C 14,4 C 10,6 C 60 % 1018,6 hPa 0,0 l/m 0 min 0 min 0 W/m 0,0 km/h (0 Bft) 97,87 %
04.05.2022 22:10 15,4 C 14,4 C 10,6 C 61 % 1018,6 hPa 0,0 l/m 0 min 0 min 0 W/m 3,2 km/h (1 Bft) 97,87 %
04.05.2022 22:12 15,4 C 14,4 C 10,6 C 61 % 1018,6 hPa 0,0 l/m 0 min 0 min 0 W/m 0,0 km/h (0 Bft) 100,00 %
04.05.2022 22:14 15,4 C 14,4 C 10,6 C 61 % 1018,6 hPa 0,0 l/m 0 min 0 min 0 W/m 0,0 km/h (0 Bft) 100,00 %
04.05.2022 22:16 15,4 C 14,4 C 10,6 C 61 % 1018,7 hPa 0,0 l/m 0 min 0 min 0 W/m 3,2 km/h (1 Bft) 100,00 %
04.05.2022 22:18 15,4 C 14,4 C 10,6 C 62 % 1018,7 hPa 0,0 l/m 0 min 0 min 0 W/m 0,0 km/h (0 Bft) 100,00 %
04.05.2022 22:20 15,4 C 14,4 C 10,6 C 62 % 1018,6 hPa 0,0 l/m 0 min 0 min 0 W/m 6,4 km/h (2 Bft) 97,87 %
04.05.2022 22:22 15,4 C 14,4 C 10,6 C 61 % 1018,7 hPa 0,0 l/m 0 min 0 min 0 W/m 3,2 km/h (1 Bft) 97,87 %
04.05.2022 22:24 15,4 C 14,4 C 10,6 C 61 % 1018,7 hPa 0,0 l/m 0 min 0 min 0 W/m 3,2 km/h (1 Bft) 100,00 %
04.05.2022 22:26 15,4 C 14,4 C 10,6 C 61 % 1018,7 hPa 0,0 l/m 0 min 0 min 0 W/m 0,0 km/h (0 Bft) 100,00 %
04.05.2022 22:28 15,3 C 14,4 C 10,6 C 62 % 1018,7 hPa 0,0 l/m 0 min 0 min 0 W/m 0,0 km/h (0 Bft) 97,87 %
04.05.2022 22:30 15,3 C 14,4 C 10,6 C 63 % 1018,7 hPa 0,0 l/m 0 min 0 min 0 W/m 0,0 km/h (0 Bft) 100,00 %
04.05.2022 22:32 15,3 C 13,9 C 10,6 C 62 % 1018,7 hPa 0,0 l/m 0 min 0 min 0 W/m 3,2 km/h (1 Bft) 100,00 %
04.05.2022 22:34 15,3 C 13,9 C 10,6 C 63 % 1018,7 hPa 0,0 l/m 0 min 0 min 0 W/m 0,0 km/h (0 Bft) 100,00 %
04.05.2022 22:36 15,3 C 13,9 C 10,6 C 63 % 1018,7 hPa 0,0 l/m 0 min 0 min 0 W/m 3,2 km/h (1 Bft) 97,87 %
04.05.2022 22:38 15,3 C 13,9 C 10,6 C 63 % 1018,8 hPa 0,0 l/m 0 min 0 min 0 W/m 0,0 km/h (0 Bft) 100,00 %
04.05.2022 22:40 15,2 C 13,9 C 10,6 C 64 % 1018,8 hPa 0,0 l/m 0 min 0 min 0 W/m 0,0 km/h (0 Bft) 100,00 %
04.05.2022 22:42 15,2 C 13,9 C 10,6 C 64 % 1018,8 hPa 0,0 l/m 0 min 0 min 0 W/m 0,0 km/h (0 Bft) 97,87 %
04.05.2022 22:44 15,2 C 13,9 C 10,6 C 64 % 1018,8 hPa 0,0 l/m 0 min 0 min 0 W/m 0,0 km/h (0 Bft) 100,00 %
04.05.2022 22:46 15,2 C 13,9 C 10,6 C 64 % 1018,8 hPa 0,0 l/m 0 min 0 min 0 W/m 3,2 km/h (1 Bft) 100,00 %
04.05.2022 22:48 15,2 C 13,9 C 10,6 C 64 % 1018,8 hPa 0,0 l/m 0 min 0 min 0 W/m 3,2 km/h (1 Bft) 100,00 %
04.05.2022 22:50 15,1 C 13,9 C 10,6 C 64 % 1018,8 hPa 0,0 l/m 0 min 0 min 0 W/m 3,2 km/h (1 Bft) 100,00 %
04.05.2022 22:52 15,1 C 13,9 C 10,6 C 64 % 1018,7 hPa 0,0 l/m 0 min 0 min 0 W/m 3,2 km/h (1 Bft) 97,87 %
04.05.2022 22:54 15,1 C 13,9 C 10,0 C 64 % 1018,7 hPa 0,0 l/m 0 min 0 min 0 W/m 6,4 km/h (2 Bft) 100,00 %
04.05.2022 22:56 15,0 C 13,3 C 10,0 C 64 % 1018,8 hPa 0,0 l/m 0 min 0 min 0 W/m 0,0 km/h (0 Bft) 100,00 %
04.05.2022 22:58 15,0 C 13,3 C 10,0 C 65 % 1018,8 hPa 0,0 l/m 0 min 0 min 0 W/m 3,2 km/h (1 Bft) 95,74 %
04.05.2022 23:00 14,9 C 13,3 C 10,0 C 65 % 1018,8 hPa 0,0 l/m 0 min 0 min 0 W/m 0,0 km/h (0 Bft) 97,87 %
04.05.2022 23:02 14,9 C 13,3 C 10,0 C 65 % 1018,8 hPa 0,0 l/m 0 min 0 min 0 W/m 0,0 km/h (0 Bft) 97,83 %
04.05.2022 23:04 14,8 C 12,8 C 9,4 C 66 % 1018,8 hPa 0,0 l/m 0 min 0 min 0 W/m 0,0 km/h (0 Bft) 97,87 %
04.05.2022 23:06 14,8 C 12,8 C 9,4 C 66 % 1018,8 hPa 0,0 l/m 0 min 0 min 0 W/m 3,2 km/h (1 Bft) 97,87 %
04.05.2022 23:08 14,8 C 12,8 C 9,4 C 67 % 1018,8 hPa 0,0 l/m 0 min 0 min 0 W/m 0,0 km/h (0 Bft) 97,87 %
04.05.2022 23:10 14,7 C 12,8 C 9,4 C 67 % 1018,9 hPa 0,0 l/m 0 min 0 min 0 W/m 3,2 km/h (1 Bft) 97,87 %
04.05.2022 23:12 14,6 C 12,8 C 9,4 C 67 % 1018,9 hPa 0,0 l/m 0 min 0 min 0 W/m 3,2 km/h (1 Bft) 97,87 %
04.05.2022 23:14 14,6 C 12,8 C 8,9 C 67 % 1018,9 hPa 0,0 l/m 0 min 0 min 0 W/m 0,0 km/h (0 Bft) 97,83 %
04.05.2022 23:16 14,4 C 12,2 C 8,9 C 68 % 1018,9 hPa 0,0 l/m 0 min 0 min 0 W/m 3,2 km/h (1 Bft) 95,74 %
04.05.2022 23:18 14,4 C 12,2 C 8,9 C 68 % 1018,9 hPa 0,0 l/m 0 min 0 min 0 W/m 0,0 km/h (0 Bft) 97,87 %
04.05.2022 23:20 14,3 C 12,2 C 8,9 C 68 % 1018,9 hPa 0,0 l/m 0 min 0 min 0 W/m 3,2 km/h (1 Bft) 97,87 %
04.05.2022 23:22 14,3 C 12,2 C 8,9 C 68 % 1018,9 hPa 0,0 l/m 0 min 0 min 0 W/m 0,0 km/h (0 Bft) 95,74 %
04.05.2022 23:24 14,3 C 12,2 C 8,9 C 68 % 1019,0 hPa 0,0 l/m 0 min 0 min 0 W/m 3,2 km/h (1 Bft) 93,62 %
04.05.2022 23:26 14,2 C 12,2 C 8,3 C 68 % 1019,0 hPa 0,0 l/m 0 min 0 min 0 W/m 0,0 km/h (0 Bft) 93,48 %
04.05.2022 23:28 14,1 C 12,2 C 8,3 C 69 % 1019,0 hPa 0,0 l/m 0 min 0 min 0 W/m 0,0 km/h (0 Bft) 93,62 %
04.05.2022 23:30 14,1 C 12,2 C 8,3 C 69 % 1019,0 hPa 0,0 l/m 0 min 0 min 0 W/m 0,0 km/h (0 Bft) 93,62 %
04.05.2022 23:32 14,0 C 12,2 C 8,3 C 69 % 1018,9 hPa 0,0 l/m 0 min 0 min 0 W/m 0,0 km/h (0 Bft) 95,74 %
04.05.2022 23:34 13,9 C 11,7 C 8,3 C 70 % 1019,0 hPa 0,0 l/m 0 min 0 min 0 W/m 0,0 km/h (0 Bft) 97,87 %
04.05.2022 23:36 13,9 C 11,7 C 8,3 C 70 % 1019,0 hPa 0,0 l/m 0 min 0 min 0 W/m 0,0 km/h (0 Bft) 95,65 %
04.05.2022 23:38 13,8 C 11,7 C 8,3 C 71 % 1019,0 hPa 0,0 l/m 0 min 0 min 0 W/m 0,0 km/h (0 Bft) 97,87 %
04.05.2022 23:40 13,8 C 11,7 C 8,3 C 71 % 1019,0 hPa 0,0 l/m 0 min 0 min 0 W/m 0,0 km/h (0 Bft) 95,74 %
04.05.2022 23:42 13,7 C 11,7 C 8,3 C 71 % 1019,0 hPa 0,0 l/m 0 min 0 min 0 W/m 0,0 km/h (0 Bft) 97,87 %
04.05.2022 23:44 13,6 C 11,7 C 7,8 C 71 % 1019,1 hPa 0,0 l/m 0 min 0 min 0 W/m 0,0 km/h (0 Bft) 97,87 %
04.05.2022 23:46 13,5 C 11,7 C 7,8 C 72 % 1019,1 hPa 0,0 l/m 0 min 0 min 0 W/m 0,0 km/h (0 Bft) 97,87 %
04.05.2022 23:48 13,4 C 11,7 C 7,8 C 72 % 1019,1 hPa 0,0 l/m 0 min 0 min 0 W/m 0,0 km/h (0 Bft) 97,83 %
04.05.2022 23:50 13,4 C 11,7 C 7,8 C 72 % 1019,1 hPa 0,0 l/m 0 min 0 min 0 W/m 3,2 km/h (1 Bft) 100,00 %
04.05.2022 23:52 13,3 C 11,7 C 7,8 C 72 % 1019,1 hPa 0,0 l/m 0 min 0 min 0 W/m 3,2 km/h (1 Bft) 100,00 %
04.05.2022 23:54 13,2 C 11,7 C 7,8 C 71 % 1019,1 hPa 0,0 l/m 0 min 0 min 0 W/m 0,0 km/h (0 Bft) 97,87 %
04.05.2022 23:56 13,2 C 11,7 C 7,8 C 72 % 1019,1 hPa 0,0 l/m 0 min 0 min 0 W/m 0,0 km/h (0 Bft) 95,74 %
04.05.2022 23:58 13,1 C 11,7 C 7,8 C 72 % 1019,1 hPa 0,0 l/m 0 min 0 min 0 W/m 3,2 km/h (1 Bft) 97,87 %
_ Min-Zeit 06:14 05:30 05:44 17:28 18:07 - - - - 02:12 07:22
Minimum _ 7,3 C 6,7 C 3,3 C 45 % 1017,2 hPa - - - - 0,0 km/h (0 Bft) 53,33 %
_ Max-Zeit 17:48 16:44 12:46 05:36 10:52 00:00 12:07 00:00 13:36 18:58 00:08
Maximum _ 20,4 C 26,7 C 21,7 C 87 % 1019,3 hPa 0,0 l/m 3 min 0 min 909 W/m 32,2 km/h
W (5 Bft)
100,00 %
Durchschnitt _ 13,8 C 15,0 C 10,1 C 68 % 1018,5 hPa #0,0 l/m #10:38 h #0 min. 481 W/m 9,0 km/h (2 Bft) 97,57 %
© 2022 W. Hausmann